U22454 / G-EZBZ 7700 Squawk Report (15th of October, 2019)

Aircraft A319 Reg No. G-EZBZ Age 12 years old
Model A319 Jet engines 2 First flight 25-06-07
Registered 13-07-07 Rollout 06-07 Delivered 13-07-07
Construction No. 3184 Line No. N/A Series 111
ADSHEX 4010EE Airline name easyJet Owner N/A
Airfield based Luton~Beds~G First tracked 2017-07-13 06:02:00
Time Lat Lon Altitude Heading Speed Vertical Rate
2019-10-15 13:16:27 GMT 51.880451 -0.371902 0 267 11 0
2019-10-15 13:16:18 GMT 51.880245 -0.371308 0 337 14 0
2019-10-15 13:16:07 GMT 51.879387 -0.370844 0 343 24 0
2019-10-15 13:15:57 GMT 51.878372 -0.370312 0 340 23 0
2019-10-15 13:15:47 GMT 51.877430 -0.369797 0 343 19 0
2019-10-15 13:15:37 GMT 51.876652 -0.369415 0 5 15 0
2019-10-15 13:15:26 GMT 51.876221 -0.370102 0 73 16 0
2019-10-15 13:15:05 GMT 51.875782 -0.372830 0 87 17 0
2019-10-15 13:14:55 GMT 51.875847 -0.373955 0 78 14 0
2019-10-15 13:14:45 GMT 51.875507 -0.374612 0 22 14 0
2019-10-15 13:14:40 GMT 51.875278 -0.374779 0 33 15 0
2019-10-15 13:14:33 GMT 51.874935 -0.375224 0 45 10 0
2019-10-15 13:14:18 GMT 51.874363 -0.376189 0 47 14 0
2019-10-15 13:14:14 GMT 51.874195 -0.376472 0 45 14 0
2019-10-15 13:14:04 GMT 51.873653 -0.376987 0 345 15 0
2019-10-15 13:13:53 GMT 51.873310 -0.376186 0 255 21 0
2019-10-15 13:13:41 GMT 51.873859 -0.372960 0 255 68 0
2019-10-15 13:13:32 GMT 51.874935 -0.366539 0 255 110 0
2019-10-15 13:13:22 GMT 51.876160 -0.359431 725 255 127 -192
2019-10-15 13:13:12 GMT 51.877815 -0.349884 850 254 126 -640
2019-10-15 13:13:01 GMT 51.879490 -0.340347 975 255 128 -704
2019-10-15 13:12:55 GMT 51.880375 -0.335236 1,050 255 126 -704
2019-10-15 13:12:49 GMT 51.881470 -0.328848 1,125 255 125 -768
2019-10-15 13:12:45 GMT 51.881908 -0.326157 1,150 255 124 -576
2019-10-15 13:12:39 GMT 51.883587 -0.316696 1,275 255 124 -576
2019-10-15 13:12:35 GMT 51.883587 -0.316696 1,275 255 124 -576
2019-10-15 13:12:31 GMT 51.884262 -0.312739 1,325 255 124 -576
2019-10-15 13:12:26 GMT 51.885075 -0.308151 1,375 255 124 -512
2019-10-15 13:12:20 GMT 51.886475 -0.299835 1,475 255 124 -704
2019-10-15 13:12:17 GMT 51.887173 -0.295639 1,500 255 124 -704
2019-10-15 13:12:12 GMT 51.887173 -0.295639 1,525 255 124 -768
2019-10-15 13:12:09 GMT 51.887589 -0.293350 1,550 255 124 -768
2019-10-15 13:12:06 GMT 51.888107 -0.290470 1,600 255 123 -704
2019-10-15 13:12:03 GMT 51.888565 -0.287575 1,625 255 124 -512
2019-10-15 13:11:59 GMT 51.889080 -0.284729 1,675 255 124 -576
2019-10-15 13:11:55 GMT 51.889801 -0.280374 1,700 255 124 -704
2019-10-15 13:11:49 GMT 51.890709 -0.275192 1,775 255 125 -640
2019-10-15 13:11:45 GMT 51.891407 -0.271072 1,800 255 125 -768
2019-10-15 13:11:40 GMT 51.892712 -0.263672 1,950 255 123 -640
2019-10-15 13:11:36 GMT 51.892712 -0.263672 1,925 255 123 -640
2019-10-15 13:11:32 GMT 51.893501 -0.259277 1,975 255 124 -576
2019-10-15 13:11:28 GMT 51.894012 -0.256060 2,000 255 125 -576
2019-10-15 13:11:25 GMT 51.894379 -0.254135 2,025 255 126 -768
2019-10-15 13:11:21 GMT 51.894974 -0.250473 2,100 255 126 -768
2019-10-15 13:11:18 GMT 51.895504 -0.247349 2,125 255 127 -640
2019-10-15 13:11:14 GMT 51.896111 -0.243818 2,150 255 127 -832
2019-10-15 13:11:11 GMT 51.896763 -0.240051 2,225 255 132 -576
2019-10-15 13:11:06 GMT 51.897972 -0.233224 2,300 255 140 -640
2019-10-15 13:10:57 GMT 51.898903 -0.227731 2,400 255 141 -768
2019-10-15 13:10:54 GMT 51.899460 -0.224435 2,450 255 142 -768
2019-10-15 13:10:50 GMT 51.900112 -0.220747 2,475 255 142 -896
2019-10-15 13:10:46 GMT 51.900997 -0.215489 2,525 256 144 -832
2019-10-15 13:10:43 GMT 51.901417 -0.212821 2,575 255 146 -704
2019-10-15 13:10:38 GMT 51.902298 -0.207596 2,625 255 151 -640
2019-10-15 13:10:35 GMT 51.902985 -0.203552 2,700 255 152 -704
2019-10-15 13:10:31 GMT 51.903488 -0.200577 2,775 255 154 -832
2019-10-15 13:10:28 GMT 51.904312 -0.196075 2,750 255 154 -832
2019-10-15 13:10:25 GMT 51.904770 -0.193481 2,825 257 152 -960
2019-10-15 13:10:22 GMT 51.905514 -0.189279 2,850 256 151 -832
2019-10-15 13:10:18 GMT 51.906212 -0.184806 2,900 257 152 -832
2019-10-15 13:10:15 GMT 51.906536 -0.182687 2,925 257 152 -960
2019-10-15 13:10:12 GMT 51.906921 -0.179825 2,950 256 151 -896
2019-10-15 13:10:09 GMT 51.907513 -0.176095 3,075 256 151 -768
2019-10-15 13:10:05 GMT 51.908352 -0.170680 3,050 257 152 -960
2019-10-15 13:09:59 GMT 51.909283 -0.164560 3,200 259 153 -768
2019-10-15 13:09:56 GMT 51.909760 -0.161209 3,200 258 152 -768
2019-10-15 13:09:52 GMT 51.910309 -0.156708 3,250 259 152 -704
2019-10-15 13:09:49 GMT 51.910675 -0.153580 3,375 260 154 -704
2019-10-15 13:09:46 GMT 51.911053 -0.150199 3,300 262 154 -768
2019-10-15 13:09:42 GMT 51.911499 -0.145493 3,350 264 157 -256
2019-10-15 13:09:39 GMT 51.911842 -0.141096 3,400 264 156 -256
2019-10-15 13:09:36 GMT 51.912075 -0.138114 3,400 265 157 -256
2019-10-15 13:09:33 GMT 51.912277 -0.135117 3,400 267 159 -256
2019-10-15 13:09:30 GMT 51.912369 -0.132294 3,425 271 162 -320
2019-10-15 13:09:26 GMT 51.912277 -0.126114 3,450 281 168 -384
2019-10-15 13:09:23 GMT 51.912003 -0.123520 3,475 287 170 -384
2019-10-15 13:09:20 GMT 51.911224 -0.119019 3,525 294 177 -384
2019-10-15 13:09:17 GMT 51.910446 -0.116196 3,575 295 179 -320
2019-10-15 13:09:14 GMT 51.909424 -0.112610 3,525 295 179 -320
2019-10-15 13:09:11 GMT 51.908203 -0.108414 3,550 295 179 -320
2019-10-15 13:09:08 GMT 51.906956 -0.104056 3,550 296 180 -320
2019-10-15 13:09:05 GMT 51.905090 -0.097733 3,775 297 181 -256
2019-10-15 13:08:59 GMT 51.903305 -0.092392 3,600 302 183 -128
2019-10-15 13:08:53 GMT 51.900833 -0.086517 3,675 316 192 -576
2019-10-15 13:08:50 GMT 51.899273 -0.083888 4,075 321 196 -512
2019-10-15 13:08:47 GMT 51.896851 -0.080719 3,675 334 203 -896
2019-10-15 13:08:44 GMT 51.894974 -0.078812 3,950 359 231 -832
2019-10-15 13:08:41 GMT 51.892227 -0.076830 3,750 358 244 -768
2019-10-15 13:08:38 GMT 51.889313 -0.075302 3,825 349 213 -896
2019-10-15 13:08:35 GMT 51.883400 -0.074005 3,900 359 225 -768
2019-10-15 13:08:32 GMT 51.883400 -0.074005 3,975 358 221 -768
2019-10-15 13:08:29 GMT 51.881241 -0.073861 3,900 359 222 -768
2019-10-15 13:08:26 GMT 51.877533 -0.073638 3,950 359 225 -768
2019-10-15 13:08:23 GMT 51.873779 -0.073490 4,025 359 231 -832
2019-10-15 13:08:19 GMT 51.869934 -0.073267 4,250 358 244 -768
2019-10-15 13:08:16 GMT 51.865105 -0.073013 4,125 359 235 -768
2019-10-15 13:08:13 GMT 51.863937 -0.072970 4,125 359 237 -768
2019-10-15 13:08:10 GMT 51.859497 -0.072747 4,175 358 240 -704
2019-10-15 13:08:04 GMT 51.853317 -0.072302 4,225 358 243 -704
2019-10-15 13:08:01 GMT 51.846497 -0.071931 4,375 358 247 -1024
2019-10-15 13:07:58 GMT 51.846497 -0.071931 4,400 358 248 -1216
2019-10-15 13:07:55 GMT 51.842434 -0.071640 4,375 358 249 -1344
2019-10-15 13:07:50 GMT 51.837433 -0.071337 4,500 359 249 -1472
2019-10-15 13:07:47 GMT 51.834000 -0.071188 4,575 359 249 -1600
2019-10-15 13:07:44 GMT 51.831589 -0.071030 4,650 359 249 -1728
2019-10-15 13:07:41 GMT 51.823719 -0.070648 4,850 358 248 -1856
2019-10-15 13:07:38 GMT 51.823719 -0.070648 4,850 359 247 -1792
2019-10-15 13:07:35 GMT 51.819809 -0.070446 4,975 359 247 -1728
2019-10-15 13:07:30 GMT 51.814957 -0.070298 5,075 1 247 -1280
2019-10-15 13:07:27 GMT 51.811295 -0.070372 5,150 2 248 -1152
2019-10-15 13:07:24 GMT 51.803703 -0.071640 5,250 8 252 -576
2019-10-15 13:07:21 GMT 51.803703 -0.071640 5,250 20 261 -256
2019-10-15 13:07:18 GMT 51.800720 -0.072673 5,250 18 259 -256
2019-10-15 13:07:12 GMT 51.793972 -0.076675 5,275 23 264 -320
2019-10-15 13:07:09 GMT 51.791107 -0.078686 5,300 23 266 -448
2019-10-15 13:07:05 GMT 51.786255 -0.082101 5,400 23 270 -576
2019-10-15 13:07:02 GMT 51.782661 -0.084686 5,375 23 272 -640
2019-10-15 13:06:59 GMT 51.779404 -0.086975 5,400 23 279 -960
2019-10-15 13:06:56 GMT 51.774979 -0.090179 5,400 23 275 -704
2019-10-15 13:06:53 GMT 51.772247 -0.092048 5,450 23 276 -704
2019-10-15 13:06:50 GMT 51.767990 -0.095091 5,500 23 279 -1024
2019-10-15 13:06:47 GMT 51.765484 -0.096893 5,575 22 280 -1152
2019-10-15 13:06:44 GMT 51.760593 -0.100174 5,600 21 281 -1216
2019-10-15 13:06:40 GMT 51.755939 -0.102997 5,700 17 281 -1344
2019-10-15 13:06:37 GMT 51.752472 -0.104667 5,775 12 281 -1344
2019-10-15 13:06:33 GMT 51.742950 -0.107562 5,850 6 280 -1920
2019-10-15 13:06:29 GMT 51.742950 -0.107562 6,150 4 279 -2368
2019-10-15 13:06:25 GMT 51.732803 -0.108948 6,125 4 278 -2496
2019-10-15 13:06:21 GMT 51.732803 -0.108948 6,225 4 278 -2560
2019-10-15 13:06:18 GMT 51.727634 -0.109634 6,475 4 277 -2496
2019-10-15 13:06:15 GMT 51.723541 -0.110168 6,875 4 276 -2688
2019-10-15 13:06:12 GMT 51.719116 -0.110703 6,600 4 277 -2560
2019-10-15 13:06:09 GMT 51.713150 -0.111422 6,800 4 277 -2560
2019-10-15 13:06:06 GMT 51.713150 -0.111422 6,875 4 276 -2624
2019-10-15 13:06:03 GMT 51.708782 -0.112000 7,650 4 273 -2368
2019-10-15 13:05:58 GMT 51.699280 -0.113129 7,900 4 291 -128
2019-10-15 13:05:55 GMT 51.699280 -0.113129 7,425 4 274 -2752
2019-10-15 13:05:52 GMT 51.695206 -0.113649 7,525 4 273 -2560
2019-10-15 13:05:49 GMT 51.692230 -0.113946 7,625 4 273 -2368
2019-10-15 13:05:46 GMT 51.688751 -0.114391 7,800 4 273 -2112
2019-10-15 13:05:43 GMT 51.682854 -0.115128 7,850 4 274 -1536
2019-10-15 13:05:40 GMT 51.679176 -0.115585 7,900 4 275 -1024
2019-10-15 13:05:37 GMT 51.675217 -0.116043 7,975 4 283 0
2019-10-15 13:05:34 GMT 51.672192 -0.116425 8,000 4 286 0
2019-10-15 13:05:31 GMT 51.667957 -0.116959 8,000 4 301 -320
2019-10-15 13:05:28 GMT 51.663940 -0.117509 8,000 4 306 -512
2019-10-15 13:05:25 GMT 51.660187 -0.117955 8,400 4 324 -1536
2019-10-15 13:05:21 GMT 51.654224 -0.118713 8,025 4 303 -320
2019-10-15 13:05:18 GMT 51.650620 -0.119142 8,075 4 324 -1536
2019-10-15 13:05:15 GMT 51.641655 -0.120316 8,150 4 318 -1088
2019-10-15 13:05:12 GMT 51.641655 -0.120316 8,225 4 324 -1536
2019-10-15 13:05:09 GMT 51.632156 -0.121536 8,250 4 325 -1600
2019-10-15 13:05:06 GMT 51.632156 -0.121536 8,300 4 327 -1856
2019-10-15 13:05:03 GMT 51.628666 -0.121994 8,400 4 330 -2176
2019-10-15 13:05:00 GMT 51.621323 -0.122928 8,500 4 332 -4416
2019-10-15 13:04:56 GMT 51.618938 -0.123291 8,800 4 333 -2688
2019-10-15 13:04:53 GMT 51.613037 -0.124042 8,800 4 335 -3200
2019-10-15 13:04:50 GMT 51.607452 -0.124710 8,950 4 334 -3904
2019-10-15 13:04:47 GMT 51.601822 -0.125452 9,175 4 327 -4672
2019-10-15 13:04:44 GMT 51.596741 -0.126120 9,300 4 334 -4160
2019-10-15 13:04:41 GMT 51.595287 -0.126343 9,400 4 333 -4352
2019-10-15 13:04:38 GMT 51.590027 -0.127029 9,700 4 329 -4800
2019-10-15 13:04:35 GMT 51.585846 -0.127605 9,850 4 329 -4800
2019-10-15 13:04:32 GMT 51.576874 -0.128792 10,150 4 326 -4608
2019-10-15 13:04:29 GMT 51.576874 -0.128792 10,775 4 324 -4096
2019-10-15 13:04:26 GMT 51.571732 -0.129471 10,600 4 323 -3904
2019-10-15 13:04:22 GMT 51.566006 -0.130234 10,875 4 322 -3712
2019-10-15 13:04:19 GMT 51.561905 -0.130797 11,025 4 376 -1024
2019-10-15 13:04:16 GMT 51.557831 -0.131316 11,475 4 321 -3264
2019-10-15 13:04:13 GMT 51.552135 -0.132065 11,500 4 321 -3136
2019-10-15 13:04:10 GMT 51.547668 -0.132652 11,725 4 322 -2688
2019-10-15 13:04:07 GMT 51.544189 -0.133024 11,700 4 321 -3008
2019-10-15 13:04:04 GMT 51.533699 -0.134354 11,875 4 325 -1152
2019-10-15 13:04:01 GMT 51.533699 -0.134354 11,950 4 325 -1152
2019-10-15 13:03:58 GMT 51.529861 -0.134805 12,000 4 329 -64
2019-10-15 13:03:55 GMT 51.525421 -0.135399 12,000 4 332 0
2019-10-15 13:03:52 GMT 51.521084 -0.135880 12,000 4 338 0
2019-10-15 13:03:49 GMT 51.512833 -0.136884 12,000 4 339 -64
2019-10-15 13:03:43 GMT 51.507111 -0.137626 12,000 4 347 -64
2019-10-15 13:03:40 GMT 51.503021 -0.138092 12,000 4 350 0
2019-10-15 13:03:37 GMT 51.497543 -0.138740 12,075 4 374 -832
2019-10-15 13:03:34 GMT 51.493061 -0.139313 12,000 4 360 -64
2019-10-15 13:03:31 GMT 51.487381 -0.139999 12,000 4 364 -128
2019-10-15 13:03:28 GMT 51.483841 -0.140457 12,425 3 383 -2688
2019-10-15 13:03:25 GMT 51.478489 -0.141068 12,025 4 370 -512
2019-10-15 13:03:22 GMT 51.472733 -0.141783 12,025 4 370 -512
2019-10-15 13:03:19 GMT 51.466461 -0.142525 12,100 4 376 -1024
2019-10-15 13:03:16 GMT 51.462009 -0.143051 12,125 4 377 -1152
2019-10-15 13:03:13 GMT 51.457581 -0.143565 12,150 4 378 -1344
2019-10-15 13:03:10 GMT 51.450836 -0.144272 12,300 3 383 -2112
2019-10-15 13:03:07 GMT 51.446320 -0.144752 12,300 3 383 -2112
2019-10-15 13:03:03 GMT 51.433502 -0.146163 12,600 3 383 -3328
2019-10-15 13:03:00 GMT 51.433502 -0.146163 12,750 3 382 -3520
2019-10-15 13:02:57 GMT 51.429337 -0.146608 12,800 4 375 -4736
2019-10-15 13:02:54 GMT 51.424812 -0.147095 12,925 4 379 -4224
2019-10-15 13:02:51 GMT 51.417114 -0.148019 13,475 4 369 -4864
2019-10-15 13:02:48 GMT 51.412895 -0.148468 13,425 4 373 -4800
2019-10-15 13:02:45 GMT 51.408894 -0.148926 13,600 4 372 -4800
2019-10-15 13:02:42 GMT 51.403793 -0.149577 13,925 4 366 -4992
2019-10-15 13:02:39 GMT 51.397614 -0.150320 14,325 4 365 -4736
2019-10-15 13:02:36 GMT 51.391155 -0.151062 15,700 4 363 -4544
2019-10-15 13:02:33 GMT 51.387245 -0.151596 14,700 4 363 -4544
2019-10-15 13:02:30 GMT 51.382965 -0.152130 16,350 5 356 -3648
2019-10-15 13:02:27 GMT 51.378204 -0.152769 15,250 5 361 -4544
2019-10-15 13:02:24 GMT 51.371929 -0.153656 15,600 5 360 -4480
2019-10-15 13:02:21 GMT 51.368393 -0.154190 15,475 5 358 -4288
2019-10-15 13:02:18 GMT 51.362091 -0.155219 15,775 5 357 -3904
2019-10-15 13:02:15 GMT 51.356476 -0.156097 16,025 5 356 -3584
2019-10-15 13:02:12 GMT 51.351681 -0.156860 16,300 5 356 -3520
2019-10-15 13:02:09 GMT 51.346001 -0.157852 16,250 6 356 -3392
2019-10-15 13:02:06 GMT 51.343185 -0.158337 16,400 6 356 -3200
2019-10-15 13:02:03 GMT 51.333759 -0.159912 16,700 6 354 -2880
2019-10-15 13:02:00 GMT 51.326263 -0.161133 16,800 5 351 -2688
2019-10-15 13:01:57 GMT 51.326263 -0.161133 18,525 4 348 -3008
2019-10-15 13:01:54 GMT 51.323776 -0.161529 17,075 4 348 -3200
2019-10-15 13:01:51 GMT 51.318302 -0.162125 17,200 1 347 -3456
2019-10-15 13:01:47 GMT 51.308060 -0.161819 17,700 345 345 -2944
2019-10-15 13:01:44 GMT 51.308060 -0.161819 17,650 348 345 -3072
2019-10-15 13:01:40 GMT 51.300705 -0.159821 17,850 348 345 -3072
2019-10-15 13:01:37 GMT 51.296097 -0.157776 18,000 342 344 -2624
2019-10-15 13:01:34 GMT 51.292561 -0.155869 18,025 339 344 -2240
2019-10-15 13:01:31 GMT 51.287857 -0.152664 18,175 333 343 -1920
2019-10-15 13:01:28 GMT 51.279373 -0.144901 18,325 329 344 -1920
2019-10-15 13:01:25 GMT 51.279373 -0.144901 18,450 324 344 -1728
2019-10-15 13:01:22 GMT 51.275757 -0.140818 18,525 322 344 -1536
2019-10-15 13:01:19 GMT 51.270676 -0.134434 18,575 322 344 -1600
2019-10-15 13:01:16 GMT 51.268585 -0.131683 18,650 322 344 -1600
2019-10-15 13:01:13 GMT 51.265137 -0.127234 18,675 321 346 -1536
2019-10-15 13:01:10 GMT 51.261417 -0.122452 18,775 321 346 -1408
2019-10-15 13:01:07 GMT 51.256897 -0.116618 18,800 321 347 -1408
2019-10-15 13:01:04 GMT 51.248940 -0.106277 18,975 321 348 -1600
2019-10-15 13:01:01 GMT 51.248940 -0.106277 19,025 321 349 -1600
2019-10-15 13:00:54 GMT 51.237717 -0.091751 19,300 321 351 -1600
2019-10-15 13:00:48 GMT 51.228550 -0.079803 19,600 321 351 -1536
2019-10-15 13:00:45 GMT 51.228550 -0.079803 19,500 321 352 -1600
2019-10-15 13:00:42 GMT 51.225338 -0.075607 19,525 321 352 -1600
2019-10-15 13:00:39 GMT 51.221848 -0.071106 19,650 321 353 -1920
2019-10-15 13:00:36 GMT 51.217796 -0.065842 20,575 321 353 -1920
2019-10-15 13:00:33 GMT 51.209743 -0.055313 19,975 321 353 -1280
2019-10-15 13:00:27 GMT 51.206764 -0.051498 19,975 321 353 -1792
2019-10-15 13:00:24 GMT 51.203274 -0.046921 20,125 321 353 -1344
2019-10-15 13:00:21 GMT 51.196850 -0.038605 20,200 321 354 -1152
2019-10-15 13:00:18 GMT 51.195683 -0.037155 20,375 321 354 -960
2019-10-15 13:00:14 GMT 51.188889 -0.028305 20,325 321 356 -960
2019-10-15 13:00:11 GMT 51.182693 -0.020265 20,400 321 355 -960
2019-10-15 13:00:08 GMT 51.182693 -0.020265 20,525 321 360 -1024
2019-10-15 13:00:05 GMT 51.177475 -0.013510 20,450 322 356 -1024
2019-10-15 13:00:02 GMT 51.174500 -0.009724 20,500 322 356 -1024
2019-10-15 12:59:59 GMT 51.170128 -0.004044 20,550 321 356 -960
2019-10-15 12:59:56 GMT 51.165527 0.001856 20,775 321 361 -1024
2019-10-15 12:59:52 GMT 51.158909 0.010452 21,150 321 365 -960
2019-10-15 12:59:46 GMT 51.148991 0.023270 20,775 321 361 -1024
2019-10-15 12:59:43 GMT 51.148991 0.023270 20,825 321 363 -1088
2019-10-15 12:59:39 GMT 51.144848 0.028610 20,875 321 364 -1024
2019-10-15 12:59:36 GMT 51.140945 0.033701 21,350 322 376 -960
2019-10-15 12:59:33 GMT 51.135166 0.041199 20,975 321 366 -1024
2019-10-15 12:59:30 GMT 51.134003 0.042725 21,025 321 368 -1024
2019-10-15 12:59:27 GMT 51.130554 0.047137 21,075 321 368 -960
2019-10-15 12:59:24 GMT 51.118744 0.062429 21,150 322 370 -1024
2019-10-15 12:59:18 GMT 51.117828 0.063543 21,225 322 374 -960
2019-10-15 12:59:15 GMT 51.113567 0.068970 21,275 322 376 -960
2019-10-15 12:59:11 GMT 51.108078 0.076088 21,300 321 376 -896
2019-10-15 12:59:08 GMT 51.099136 0.087585 21,400 322 380 -960
2019-10-15 12:59:05 GMT 51.099136 0.087585 21,525 321 381 -960
2019-10-15 12:59:01 GMT 51.091782 0.097095 21,475 322 383 -960
2019-10-15 12:58:58 GMT 51.088257 0.101549 21,525 321 386 -960
2019-10-15 12:58:54 GMT 51.085262 0.105438 21,600 321 388 -1024
2019-10-15 12:58:51 GMT 51.080235 0.111847 21,650 322 391 -1024
2019-10-15 12:58:48 GMT 51.075764 0.117645 21,975 322 391 -1024
2019-10-15 12:58:44 GMT 51.066971 0.128867 21,800 322 394 -1024
2019-10-15 12:58:38 GMT 51.063080 0.133914 21,925 322 395 -1088
2019-10-15 12:58:35 GMT 51.055794 0.143204 21,975 321 395 -960
2019-10-15 12:58:32 GMT 51.052734 0.147202 21,975 321 396 -960
2019-10-15 12:58:29 GMT 51.049988 0.150691 22,075 321 396 -960
2019-10-15 12:58:26 GMT 51.039734 0.163904 22,225 321 396 -960
2019-10-15 12:58:23 GMT 51.039734 0.163904 22,225 321 397 -960
2019-10-15 12:58:20 GMT 51.036987 0.167467 22,175 321 396 -960
2019-10-15 12:58:17 GMT 51.033077 0.172501 22,325 322 409 -1024
2019-10-15 12:58:14 GMT 51.029072 0.177612 22,300 321 397 -960
2019-10-15 12:58:11 GMT 51.022705 0.185877 22,350 321 397 -960
2019-10-15 12:58:05 GMT 51.015747 0.194859 22,425 321 397 -1024
2019-10-15 12:57:59 GMT 51.005676 0.207924 22,550 321 398 -1024
2019-10-15 12:57:55 GMT 51.001190 0.213776 22,625 321 399 -960
2019-10-15 12:57:51 GMT 50.995090 0.221710 22,950 321 399 -1024
2019-10-15 12:57:48 GMT 50.985672 0.233905 22,750 321 399 -1024
2019-10-15 12:57:44 GMT 50.985672 0.233905 22,775 321 399 -1024
2019-10-15 12:57:41 GMT 50.982285 0.238285 22,850 321 399 -1024
2019-10-15 12:57:38 GMT 50.977112 0.245040 22,875 321 400 -1024
2019-10-15 12:57:35 GMT 50.973129 0.250162 22,925 321 400 -1024
2019-10-15 12:57:32 GMT 50.965897 0.259515 23,000 321 401 -1024
2019-10-15 12:57:28 GMT 50.962097 0.264414 23,050 321 402 -1024
2019-10-15 12:57:25 GMT 50.958408 0.269165 23,175 321 404 -1024
2019-10-15 12:57:22 GMT 50.954086 0.274732 23,150 321 404 -1024
2019-10-15 12:57:19 GMT 50.948868 0.281488 23,200 321 404 -1024
2019-10-15 12:57:16 GMT 50.945744 0.285492 23,250 322 406 -1024
2019-10-15 12:57:13 GMT 50.940483 0.292206 23,300 322 406 -1024
2019-10-15 12:57:10 GMT 50.936760 0.297012 23,350 322 407 -960
2019-10-15 12:57:07 GMT 50.933315 0.301361 23,375 322 407 -1024
2019-10-15 12:57:04 GMT 50.927673 0.308508 23,475 322 410 -960
2019-10-15 12:57:01 GMT 50.923260 0.314102 23,500 322 411 -960
2019-10-15 12:56:58 GMT 50.919163 0.319290 23,575 322 411 -960
2019-10-15 12:56:55 GMT 50.913437 0.326472 23,700 322 414 -960
2019-10-15 12:56:52 GMT 50.908363 0.332794 23,675 322 419 -896
2019-10-15 12:56:49 GMT 50.901894 0.340805 23,725 322 415 -960
2019-10-15 12:56:42 GMT 50.895794 0.348358 24,250 321 420 -896
2019-10-15 12:56:39 GMT 50.890255 0.355225 23,850 322 419 -896
2019-10-15 12:56:36 GMT 50.879967 0.368500 24,775 316 425 -1600
2019-10-15 12:56:32 GMT 50.879967 0.368500 23,950 319 423 -1152
2019-10-15 12:56:28 GMT 50.874619 0.375985 24,075 316 425 -1600
2019-10-15 12:56:25 GMT 50.865921 0.389198 24,525 315 427 -1856
2019-10-15 12:56:22 GMT 50.865921 0.389198 24,200 314 427 -1920
2019-10-15 12:56:19 GMT 50.862122 0.395434 24,925 312 429 -2176
2019-10-15 12:56:15 GMT 50.856400 0.405232 24,500 312 429 -2176
2019-10-15 12:56:12 GMT 50.852142 0.412655 24,525 312 429 -2112
2019-10-15 12:56:09 GMT 50.848434 0.419188 24,700 312 439 -2176
2019-10-15 12:56:05 GMT 50.843422 0.428085 24,750 312 431 -2240
2019-10-15 12:56:02 GMT 50.839462 0.435148 24,875 312 432 -2176
2019-10-15 12:55:59 GMT 50.835510 0.442200 25,400 312 432 -2176
2019-10-15 12:55:55 GMT 50.829300 0.453334 25,100 312 432 -2176
2019-10-15 12:55:52 GMT 50.825920 0.459366 25,250 312 434 -2176
2019-10-15 12:55:49 GMT 50.819263 0.471420 25,400 312 435 -2176
2019-10-15 12:55:46 GMT 50.817719 0.474194 25,550 312 435 -2240
2019-10-15 12:55:43 GMT 50.812363 0.483844 25,725 312 441 -2176
2019-10-15 12:55:40 GMT 50.809799 0.488446 25,900 312 439 -2176
2019-10-15 12:55:37 GMT 50.806091 0.495127 26,000 312 439 -2176
2019-10-15 12:55:34 GMT 50.801239 0.503738 26,550 312 439 -2176
2019-10-15 12:55:31 GMT 50.797523 0.510330 26,050 312 439 -2176
2019-10-15 12:55:28 GMT 50.789108 0.525191 26,350 312 441 -2176
2019-10-15 12:55:25 GMT 50.789108 0.525191 26,275 312 441 -2112
2019-10-15 12:55:21 GMT 50.784760 0.532837 26,700 312 445 -2176
2019-10-15 12:55:18 GMT 50.779274 0.542603 26,850 312 446 -2240
2019-10-15 12:55:14 GMT 50.774342 0.551376 26,675 312 444 -2240
2019-10-15 12:55:11 GMT 50.771454 0.556488 26,725 312 443 -2176
2019-10-15 12:55:08 GMT 50.767365 0.563717 26,850 312 446 -2304
2019-10-15 12:55:05 GMT 50.762749 0.571976 26,925 312 444 -2176
2019-10-15 12:55:02 GMT 50.753403 0.588585 27,175 312 446 -2176
2019-10-15 12:54:59 GMT 50.753403 0.588585 27,875 312 446 -2304
2019-10-15 12:54:56 GMT 50.749603 0.595414 27,500 312 447 -2304
2019-10-15 12:54:53 GMT 50.745804 0.602112 27,650 312 446 -2240
2019-10-15 12:54:49 GMT 50.733047 0.624695 27,625 312 446 -2304
2019-10-15 12:54:45 GMT 50.731232 0.627899 27,850 312 446 -2304
2019-10-15 12:54:39 GMT 50.726204 0.636749 28,000 312 446 -2240
2019-10-15 12:54:33 GMT 50.718616 0.650177 28,275 312 446 -2240
2019-10-15 12:54:30 GMT 50.715408 0.655839 28,300 312 446 -2240
2019-10-15 12:54:27 GMT 50.710144 0.665207 28,575 312 446 -2240
2019-10-15 12:54:24 GMT 50.704884 0.674515 28,550 312 447 -2304
2019-10-15 12:54:21 GMT 50.700760 0.681820 28,700 312 447 -2304
2019-10-15 12:54:18 GMT 50.696972 0.688553 28,750 312 447 -2304
2019-10-15 12:54:14 GMT 50.687847 0.704651 29,075 312 447 -2304
2019-10-15 12:54:11 GMT 50.687847 0.704651 29,150 312 447 -2304
2019-10-15 12:54:05 GMT 50.681190 0.716553 29,225 312 447 -2240
2019-10-15 12:54:02 GMT 50.676163 0.725403 29,550 312 449 -2240
2019-10-15 12:53:59 GMT 50.672390 0.732117 29,575 312 448 -2304
2019-10-15 12:53:56 GMT 50.666618 0.742394 29,575 312 449 -2240
2019-10-15 12:53:53 GMT 50.663544 0.747738 29,750 312 448 -2240
2019-10-15 12:53:50 GMT 50.659122 0.755459 34,750 313 449 -2304
2019-10-15 12:53:47 GMT 50.654469 0.763624 29,900 312 448 -2304
2019-10-15 12:53:43 GMT 50.643204 0.783444 30,125 312 448 -2304
2019-10-15 12:53:39 GMT 50.643204 0.783444 30,175 312 448 -2304
2019-10-15 12:53:35 GMT 50.638733 0.791238 30,325 312 450 -2304
2019-10-15 12:53:32 GMT 50.632309 0.802447 30,575 312 450 -2304
2019-10-15 12:53:29 GMT 50.630676 0.805327 30,575 312 449 -2304
2019-10-15 12:53:26 GMT 50.625732 0.814072 30,700 312 450 -2304
2019-10-15 12:53:23 GMT 50.622162 0.820288 30,950 312 450 -2304
2019-10-15 12:53:19 GMT 50.616573 0.830136 30,925 312 450 -2240
2019-10-15 12:53:15 GMT 50.610943 0.840083 31,325 312 451 -2240
2019-10-15 12:53:12 GMT 50.606827 0.847321 31,200 312 451 -2240
2019-10-15 12:53:09 GMT 50.603260 0.853593 31,325 312 451 -2240
2019-10-15 12:53:05 GMT 50.596416 0.865619 31,500 312 452 -2240
2019-10-15 12:53:02 GMT 50.592270 0.872979 31,725 312 452 -2240
2019-10-15 12:52:59 GMT 50.588688 0.879203 31,750 312 452 -2240
2019-10-15 12:52:56 GMT 50.585129 0.885484 32,000 312 452 -2240
2019-10-15 12:52:52 GMT 50.574818 0.903774 31,975 312 453 -2240
2019-10-15 12:52:49 GMT 50.574818 0.903774 32,150 312 453 -2240
2019-10-15 12:52:45 GMT 50.569138 0.913795 32,425 312 454 -2240
2019-10-15 12:52:41 GMT 50.563786 0.923223 32,350 312 454 -2240
2019-10-15 12:52:38 GMT 50.559643 0.930497 32,425 312 454 -2304
2019-10-15 12:52:35 GMT 50.555099 0.938391 32,600 312 454 -2304
2019-10-15 12:52:32 GMT 50.547134 0.952486 33,100 312 455 -2496
2019-10-15 12:52:26 GMT 50.542324 0.961007 33,025 313 456 -2688
2019-10-15 12:52:23 GMT 50.534271 0.975181 33,025 312 456 -2560
2019-10-15 12:52:20 GMT 50.534271 0.975181 33,125 312 455 -2624
2019-10-15 12:52:16 GMT 50.527679 0.986673 33,725 312 456 -2688
2019-10-15 12:52:13 GMT 50.524109 0.992962 33,450 312 456 -2624
2019-10-15 12:52:09 GMT 50.515732 1.007562 33,900 313 455 -2688
2019-10-15 12:52:03 GMT 50.509968 1.017497 33,875 313 455 -2688
2019-10-15 12:52:00 GMT 50.502182 1.031052 34,175 312 456 -2752
2019-10-15 12:51:57 GMT 50.502182 1.031052 34,700 312 456 -2752
2019-10-15 12:51:54 GMT 50.498199 1.037919 34,725 312 455 -2752
2019-10-15 12:51:50 GMT 50.491859 1.048823 34,725 312 455 -2752
2019-10-15 12:51:46 GMT 50.487625 1.056133 34,575 313 455 -2816
2019-10-15 12:51:42 GMT 50.481354 1.067047 34,875 312 456 -2752
2019-10-15 12:51:39 GMT 50.477417 1.073914 35,075 312 456 -2688
2019-10-15 12:51:36 GMT 50.472336 1.082732 35,100 312 456 -2688
2019-10-15 12:51:32 GMT 50.465836 1.094152 35,225 312 456 -2688
2019-10-15 12:51:29 GMT 50.462128 1.100657 35,425 312 456 -2752
2019-10-15 12:51:25 GMT 50.457047 1.109475 35,525 313 456 -2752
2019-10-15 12:51:21 GMT 50.451004 1.119955 35,725 313 457 -2688
2019-10-15 12:51:18 GMT 50.446194 1.128326 35,800 313 457 -2624
2019-10-15 12:51:15 GMT 50.443169 1.133596 35,925 313 459 -2496
2019-10-15 12:51:12 GMT 50.437958 1.142506 36,100 313 458 -2624
2019-10-15 12:51:09 GMT 50.428921 1.158093 36,350 313 458 -2496
2019-10-15 12:51:05 GMT 50.428921 1.158093 36,350 313 458 -2496
2019-10-15 12:51:01 GMT 50.423126 1.168092 36,575 313 459 -2496
2019-10-15 12:50:58 GMT 50.417999 1.176910 37,025 313 459 -2432
2019-10-15 12:50:55 GMT 50.413700 1.184296 37,075 313 459 -2432
2019-10-15 12:50:50 GMT 50.407059 1.195847 37,075 313 460 -2048
2019-10-15 12:50:47 GMT 50.402153 1.204339 37,125 313 459 -1984
2019-10-15 12:50:44 GMT 50.399780 1.208496 37,200 313 459 -1984
2019-10-15 12:50:40 GMT 50.392517 1.221116 37,400 313 460 -1664
2019-10-15 12:50:37 GMT 50.387329 1.230107 37,450 313 459 -1472
2019-10-15 12:50:34 GMT 50.384560 1.234774 37,525 313 459 -1280
2019-10-15 12:50:29 GMT 50.374924 1.251357 37,700 313 459 -896
2019-10-15 12:50:26 GMT 50.373001 1.254682 37,675 313 459 -960
2019-10-15 12:50:23 GMT 50.369659 1.260384 37,775 313 459 -320
2019-10-15 12:50:16 GMT 50.357437 1.281353 37,825 313 460 -1024
2019-10-15 12:50:13 GMT 50.354691 1.286051 38,025 313 460 -512
2019-10-15 12:50:08 GMT 50.347733 1.298049 37,925 313 460 -640
2019-10-15 12:50:04 GMT 50.340706 1.310120 38,000 313 459 0
2019-10-15 12:49:57 GMT 50.332233 1.324818 38,025 312 458 -64
2019-10-15 12:49:52 GMT 50.319580 1.346837 38,025 313 458 0
2019-10-15 12:49:48 GMT 50.319580 1.346837 38,025 313 458 0
2019-10-15 12:49:45 GMT 50.314407 1.355727 38,025 313 458 64
2019-10-15 12:49:42 GMT 50.309002 1.365200 38,000 313 458 0
2019-10-15 12:49:37 GMT 50.304440 1.372994 38,000 313 458 0
2019-10-15 12:49:33 GMT 50.293549 1.391849 38,000 313 458 0
2019-10-15 12:49:30 GMT 50.293549 1.391849 38,000 313 458 0
2019-10-15 12:49:27 GMT 50.289276 1.399239 38,000 313 458 0
2019-10-15 12:49:24 GMT 50.283554 1.409141 38,000 313 459 0
2019-10-15 12:49:20 GMT 50.277813 1.419018 38,000 313 458 0
2019-10-15 12:49:16 GMT 50.274464 1.424808 38,000 313 459 0
2019-10-15 12:49:13 GMT 50.268688 1.434681 38,000 313 459 0
2019-10-15 12:49:09 GMT 50.261055 1.447746 38,000 313 459 0
2019-10-15 12:49:06 GMT 50.255936 1.456579 38,000 313 458 0
2019-10-15 12:48:59 GMT 50.248901 1.468626 38,000 313 459 0
2019-10-15 12:48:56 GMT 50.244621 1.475954 38,000 313 458 0
2019-10-15 12:48:52 GMT 50.235168 1.492045 38,000 313 459 0
2019-10-15 12:48:49 GMT 50.235168 1.492045 38,000 313 459 0
2019-10-15 12:48:46 GMT 50.230331 1.500376 38,000 313 459 0
2019-10-15 12:48:43 GMT 50.226933 1.506092 38,000 313 459 0
2019-10-15 12:48:38 GMT 50.219284 1.519221 38,000 313 459 0
2019-10-15 12:48:35 GMT 50.215340 1.525912 38,000 313 459 0
2019-10-15 12:48:32 GMT 50.211090 1.533171 38,000 313 459 0
2019-10-15 12:48:28 GMT 50.205284 1.543134 38,000 313 459 0
2019-10-15 12:48:24 GMT 50.200119 1.551893 38,000 313 459 0
2019-10-15 12:48:21 GMT 50.196114 1.558722 38,000 313 460 0
2019-10-15 12:48:18 GMT 50.191505 1.566517 38,000 313 459 -64
2019-10-15 12:48:15 GMT 50.186943 1.574311 38,000 313 459 0
2019-10-15 12:48:12 GMT 50.181126 1.584110 38,000 313 459 0
2019-10-15 12:48:08 GMT 50.175659 1.593451 38,000 313 459 64
2019-10-15 12:48:03 GMT 50.169846 1.603353 38,000 313 459 0
2019-10-15 12:48:00 GMT 50.165577 1.610611 38,000 313 459 0
2019-10-15 12:47:57 GMT 50.160084 1.619964 38,000 313 460 0
2019-10-15 12:47:54 GMT 50.155800 1.627313 38,000 313 460 64
2019-10-15 12:47:51 GMT 50.150574 1.636168 37,975 313 460 64
2019-10-15 12:47:48 GMT 50.143616 1.648094 37,975 313 460 0
2019-10-15 12:47:42 GMT 50.139927 1.654333 37,975 313 460 0
2019-10-15 12:47:39 GMT 50.135365 1.662128 38,000 313 460 0
2019-10-15 12:47:36 GMT 50.129883 1.671512 38,000 313 459 0
2019-10-15 12:47:32 GMT 50.125946 1.678234 38,000 313 459 0
2019-10-15 12:47:29 GMT 50.118942 1.690304 38,000 313 459 0
2019-10-15 12:47:26 GMT 50.116196 1.694930 38,000 313 459 0
2019-10-15 12:47:23 GMT 50.111900 1.702287 38,000 313 459 0
2019-10-15 12:47:19 GMT 50.097610 1.726709 38,000 313 460 0
2019-10-15 12:47:15 GMT 50.097610 1.726709 38,000 313 460 0
2019-10-15 12:47:10 GMT 50.093307 1.733961 38,000 313 460 -64
2019-10-15 12:47:07 GMT 50.088440 1.742298 38,000 313 460 -64
2019-10-15 12:47:03 GMT 50.082294 1.752690 38,000 313 459 0
2019-10-15 12:46:57 GMT 50.075264 1.764642 38,000 313 459 64
2019-10-15 12:46:54 GMT 50.069138 1.774942 38,000 313 459 0
2019-10-15 12:46:48 GMT 50.061440 1.787951 38,000 313 459 0
2019-10-15 12:46:42 GMT 50.053757 1.800818 38,000 313 460 -64
2019-10-15 12:46:38 GMT 50.047302 1.811660 38,000 313 459 0
2019-10-15 12:46:34 GMT 50.041489 1.821418 38,000 313 459 0
2019-10-15 12:46:30 GMT 50.036205 1.830263 38,000 313 459 0
2019-10-15 12:46:27 GMT 50.032158 1.837018 38,000 313 459 0
2019-10-15 12:46:24 GMT 50.027618 1.844619 38,000 313 459 0
2019-10-15 12:46:21 GMT 50.023266 1.851864 38,000 313 459 0
2019-10-15 12:46:18 GMT 50.018372 1.860087 38,000 313 459 0
2019-10-15 12:46:15 GMT 50.014702 1.866265 38,000 313 459 0
2019-10-15 12:46:12 GMT 50.009209 1.875470 38,000 313 460 64
2019-10-15 12:46:09 GMT 50.005737 1.881264 38,000 313 459 64
2019-10-15 12:46:05 GMT 49.994637 1.899818 38,000 313 460 0
2019-10-15 12:46:02 GMT 49.994637 1.899818 38,000 313 460 0
2019-10-15 12:45:52 GMT 49.981934 1.920945 37,975 312 460 -64
2019-10-15 12:45:49 GMT 49.976994 1.929140 37,975 313 460 64
2019-10-15 12:45:45 GMT 49.972012 1.937454 37,975 313 461 -64
2019-10-15 12:45:41 GMT 49.964676 1.949712 37,975 313 460 0
2019-10-15 12:45:38 GMT 49.961884 1.954338 37,975 313 460 0
2019-10-15 12:45:33 GMT 49.953812 1.967740 37,975 313 460 -64
2019-10-15 12:45:30 GMT 49.950119 1.973925 38,000 313 461 -64
2019-10-15 12:45:27 GMT 49.939636 1.991417 38,000 313 460 -64
2019-10-15 12:45:23 GMT 49.939636 1.991417 37,975 313 460 -64
2019-10-15 12:45:20 GMT 49.934956 1.999289 38,000 313 460 -64
2019-10-15 12:45:17 GMT 49.931324 2.005376 38,000 313 460 -64
2019-10-15 12:45:14 GMT 49.925785 2.014803 38,000 312 460 -64
2019-10-15 12:45:08 GMT 49.916382 2.030953 38,025 330 467 0
2019-10-15 12:45:02 GMT 49.909725 2.042418 38,000 312 459 -64
2019-10-15 12:44:57 GMT 49.901905 2.056076 38,025 312 459 -64
2019-10-15 12:44:53 GMT 49.896271 2.066098 38,025 312 459 -64
2019-10-15 12:44:50 GMT 49.892075 2.073525 38,025 326 465 0
2019-10-15 12:44:45 GMT 49.885757 2.084583 38,025 316 461 0
2019-10-15 12:44:42 GMT 49.873646 2.103436 38,025 326 465 0
2019-10-15 12:44:37 GMT 49.873646 2.103436 38,025 331 466 0
2019-10-15 12:44:32 GMT 49.865219 2.114497 38,025 331 467 0
2019-10-15 12:44:28 GMT 49.857586 2.123256 38,025 326 465 0
2019-10-15 12:44:24 GMT 49.850277 2.130680 38,025 329 465 -64
2019-10-15 12:44:21 GMT 49.842548 2.137880 38,025 330 466 0
2019-10-15 12:44:17 GMT 49.838882 2.141178 38,025 331 466 0
2019-10-15 12:44:14 GMT 49.832932 2.146526 38,025 331 466 0
2019-10-15 12:44:11 GMT 49.824905 2.153617 38,025 331 465 0
2019-10-15 12:44:08 GMT 49.822540 2.155706 38,025 331 466 0
2019-10-15 12:44:05 GMT 49.816944 2.160669 38,025 331 466 0
2019-10-15 12:44:02 GMT 49.809769 2.167053 38,025 331 467 0
2019-10-15 12:43:58 GMT 49.801392 2.174426 38,025 331 467 0
2019-10-15 12:43:55 GMT 49.797775 2.177606 38,025 331 467 0
2019-10-15 12:43:52 GMT 49.791046 2.183533 38,025 331 467 64
2019-10-15 12:43:49 GMT 49.785782 2.188086 38,000 331 466 64
2019-10-15 12:43:46 GMT 49.779785 2.193363 38,025 331 467 64
2019-10-15 12:43:42 GMT 49.773056 2.199362 38,000 330 466 64
2019-10-15 12:43:39 GMT 49.767838 2.203988 38,000 331 466 64
2019-10-15 12:43:36 GMT 49.762665 2.208541 38,000 331 466 64
2019-10-15 12:43:33 GMT 49.755157 2.215263 38,000 330 466 64
2019-10-15 12:43:27 GMT 49.743210 2.225960 38,000 330 466 64
2019-10-15 12:43:21 GMT 49.731617 2.236312 38,000 330 467 64
2019-10-15 12:43:16 GMT 49.722610 2.244391 38,000 330 467 0
2019-10-15 12:43:12 GMT 49.715324 2.250935 38,000 330 467 0
2019-10-15 12:43:08 GMT 49.707829 2.257765 38,000 330 467 0
2019-10-15 12:43:01 GMT 49.696701 2.267786 38,000 330 467 0
2019-10-15 12:42:58 GMT 49.691536 2.272463 38,000 330 467 0
2019-10-15 12:42:55 GMT 49.685989 2.277495 38,000 330 467 0
2019-10-15 12:42:52 GMT 49.680817 2.282193 38,000 330 467 0
2019-10-15 12:42:49 GMT 49.665756 2.295781 38,000 330 466 -64
2019-10-15 12:42:45 GMT 49.665756 2.295781 38,000 330 466 -64
2019-10-15 12:42:42 GMT 49.660583 2.300407 38,000 330 467 -64
2019-10-15 12:42:38 GMT 49.653408 2.306832 38,000 330 466 -64
2019-10-15 12:42:35 GMT 49.648636 2.311104 38,000 330 466 0
2019-10-15 12:42:30 GMT 49.637558 2.321006 38,000 331 466 64
2019-10-15 12:42:24 GMT 49.626434 2.330909 38,000 331 466 64
2019-10-15 12:42:20 GMT 49.620029 2.336599 38,000 331 466 0
2019-10-15 12:42:17 GMT 49.615265 2.340883 38,000 331 466 0
2019-10-15 12:42:13 GMT 49.607712 2.347605 38,000 331 466 0
2019-10-15 12:42:10 GMT 49.602154 2.352559 38,000 331 466 0
2019-10-15 12:42:07 GMT 49.596634 2.357435 38,000 331 466 0
2019-10-15 12:42:03 GMT 49.588654 2.364510 38,000 331 466 0
2019-10-15 12:42:00 GMT 49.583488 2.369038 38,000 331 466 0
2019-10-15 12:41:57 GMT 49.574707 2.376878 38,000 331 465 0
2019-10-15 12:41:54 GMT 49.571568 2.379654 38,000 331 465 0
2019-10-15 12:41:51 GMT 49.565613 2.384924 38,000 331 465 0
2019-10-15 12:41:48 GMT 49.553238 2.395815 38,000 331 465 0
2019-10-15 12:41:45 GMT 49.553238 2.395815 38,000 331 465 0
2019-10-15 12:41:41 GMT 49.546509 2.401741 38,000 331 465 0
2019-10-15 12:41:38 GMT 49.542938 2.404922 38,000 331 465 0
2019-10-15 12:41:35 GMT 49.534931 2.411944 38,000 331 464 0
2019-10-15 12:41:27 GMT 49.521435 2.423822 38,000 331 465 0
2019-10-15 12:41:23 GMT 49.513824 2.430508 38,000 331 465 -64
2019-10-15 12:41:19 GMT 49.505882 2.437406 38,000 331 465 0
2019-10-15 12:41:16 GMT 49.500275 2.442290 38,000 331 465 0
2019-10-15 12:41:13 GMT 49.495880 2.446193 38,000 331 465 0
2019-10-15 12:41:09 GMT 49.479996 2.460070 38,000 331 465 -64
2019-10-15 12:41:05 GMT 49.479996 2.460070 38,000 331 464 0
2019-10-15 12:41:02 GMT 49.474415 2.465020 38,000 331 464 0
2019-10-15 12:40:58 GMT 49.466492 2.471924 38,000 331 464 0
2019-10-15 12:40:55 GMT 49.460915 2.476823 38,000 331 464 0
2019-10-15 12:40:52 GMT 49.445023 2.490644 38,000 331 463 64
2019-10-15 12:40:47 GMT 49.445023 2.490644 38,000 331 464 0
2019-10-15 12:40:44 GMT 49.441452 2.493752 38,000 331 464 0
2019-10-15 12:40:41 GMT 49.433495 2.500726 38,000 331 464 0
2019-10-15 12:40:36 GMT 49.424789 2.508334 38,000 331 464 0
2019-10-15 12:40:31 GMT 49.410049 2.521292 38,000 331 464 64
2019-10-15 12:40:27 GMT 49.410049 2.521292 38,000 331 464 64
2019-10-15 12:40:23 GMT 49.402912 2.527506 38,000 331 464 64
2019-10-15 12:40:19 GMT 49.394577 2.534814 38,000 331 463 64
2019-10-15 12:40:15 GMT 49.387455 2.541022 37,975 331 463 64
2019-10-15 12:40:12 GMT 49.382290 2.545503 37,975 331 463 64
2019-10-15 12:40:09 GMT 49.375992 2.551011 37,975 331 463 0
2019-10-15 12:40:03 GMT 49.364822 2.560730 37,975 331 464 0
2019-10-15 12:40:00 GMT 49.359665 2.565235 37,975 331 464 0
2019-10-15 12:39:56 GMT 49.352543 2.571451 37,975 331 464 0
2019-10-15 12:39:53 GMT 49.346581 2.576655 37,975 331 463 0
2019-10-15 12:39:50 GMT 49.340286 2.582139 37,975 331 463 0
2019-10-15 12:39:46 GMT 49.334335 2.587351 38,000 331 463 -64
2019-10-15 12:39:42 GMT 49.325588 2.595014 37,975 331 463 0
2019-10-15 12:39:39 GMT 49.321655 2.598478 37,975 331 463 0
2019-10-15 12:39:36 GMT 49.313717 2.605422 37,975 331 463 0
2019-10-15 12:39:32 GMT 49.305817 2.612281 37,975 331 464 0
2019-10-15 12:39:28 GMT 49.300644 2.616859 37,975 331 463 -64
2019-10-15 12:39:25 GMT 49.293140 2.623420 37,975 331 463 -64
2019-10-15 12:39:22 GMT 49.288788 2.627282 37,975 331 462 -64
2019-10-15 12:39:19 GMT 49.283272 2.632093 37,975 331 462 0
2019-10-15 12:39:15 GMT 49.276154 2.638339 37,975 331 462 0
2019-10-15 12:39:12 GMT 49.268608 2.644958 37,975 331 462 0
2019-10-15 12:39:08 GMT 49.263107 2.649747 37,975 331 462 0
2019-10-15 12:39:04 GMT 49.253998 2.657705 38,000 331 463 -64
2019-10-15 12:39:01 GMT 49.249649 2.661579 38,000 331 462 -64
2019-10-15 12:38:58 GMT 49.244167 2.666353 38,000 331 462 -64
2019-10-15 12:38:55 GMT 49.239395 2.670452 38,000 331 462 -64
2019-10-15 12:38:51 GMT 49.228271 2.680171 38,000 331 462 0
2019-10-15 12:38:47 GMT 49.223171 2.684639 38,000 331 462 0
2019-10-15 12:38:43 GMT 49.210464 2.695665 38,000 331 463 64
2019-10-15 12:38:40 GMT 49.210464 2.695665 38,000 331 463 64
2019-10-15 12:38:37 GMT 49.204926 2.700541 38,000 331 463 0
2019-10-15 12:38:34 GMT 49.200222 2.704661 38,000 331 463 0
2019-10-15 12:38:30 GMT 49.190727 2.712900 38,000 331 463 -64
2019-10-15 12:38:26 GMT 49.185196 2.717778 38,000 331 462 -64
2019-10-15 12:38:23 GMT 49.178856 2.723308 38,000 331 463 -64
2019-10-15 12:38:19 GMT 49.171314 2.729958 38,000 331 462 -64
2019-10-15 12:38:15 GMT 49.164185 2.736230 38,000 331 462 -64
2019-10-15 12:38:12 GMT 49.157906 2.741739 38,000 331 462 0
2019-10-15 12:38:08 GMT 49.152328 2.746652 38,000 331 462 0
2019-10-15 12:38:05 GMT 49.145233 2.752850 38,025 331 462 -64
2019-10-15 12:37:59 GMT 49.134567 2.762216 38,025 331 462 -64
2019-10-15 12:37:56 GMT 49.130264 2.766019 38,025 331 463 -64
2019-10-15 12:37:53 GMT 49.124313 2.771231 38,025 331 463 -64
2019-10-15 12:37:49 GMT 49.114014 2.780245 38,025 331 464 0
2019-10-15 12:37:46 GMT 49.108887 2.784752 38,025 330 463 0
2019-10-15 12:37:43 GMT 49.104904 2.788274 38,025 331 464 0
2019-10-15 12:37:38 GMT 49.095852 2.796237 38,025 330 463 -64
2019-10-15 12:37:35 GMT 49.087921 2.803204 38,025 330 463 -64
2019-10-15 12:37:31 GMT 49.083527 2.807077 38,025 331 464 0
2019-10-15 12:37:27 GMT 49.075695 2.814018 38,025 331 464 0
2019-10-15 12:37:20 GMT 49.063385 2.824824 38,000 331 464 0
2019-10-15 12:37:16 GMT 49.052696 2.834184 38,025 331 464 0
2019-10-15 12:37:10 GMT 49.044041 2.841845 38,000 331 464 0
2019-10-15 12:37:05 GMT 49.026955 2.856807 38,025 331 464 0
2019-10-15 12:37:01 GMT 49.026955 2.856807 38,025 331 464 0
2019-10-15 12:36:57 GMT 49.017925 2.864757 38,025 331 464 0
2019-10-15 12:36:51 GMT 49.006844 2.874443 38,025 331 463 64
2019-10-15 12:36:45 GMT 48.995453 2.884404 38,025 331 463 64
2019-10-15 12:36:42 GMT 48.990551 2.888682 38,025 331 463 64
2019-10-15 12:36:34 GMT 48.976307 2.901113 38,000 331 464 64
2019-10-15 12:36:31 GMT 48.971512 2.905250 38,000 331 464 0
2019-10-15 12:36:24 GMT 48.957592 2.917304 38,000 331 464 0
2019-10-15 12:36:20 GMT 48.949402 2.924406 38,000 331 464 0
2019-10-15 12:36:13 GMT 48.937668 2.934434 38,000 331 464 0
2019-10-15 12:36:09 GMT 48.930965 2.940216 38,000 331 463 0
2019-10-15 12:36:05 GMT 48.922211 2.947716 38,000 331 463 0
2019-10-15 12:36:01 GMT 48.913834 2.954900 38,000 331 463 0
2019-10-15 12:35:58 GMT 48.906006 2.961590 38,000 331 464 0
2019-10-15 12:35:53 GMT 48.900696 2.966097 38,000 331 463 0
2019-10-15 12:35:50 GMT 48.895477 2.970534 38,000 331 462 -64
2019-10-15 12:35:46 GMT 48.887100 2.977717 38,000 331 462 64
2019-10-15 12:35:43 GMT 48.881973 2.982084 38,000 331 463 0
2019-10-15 12:35:40 GMT 48.870895 2.991591 38,000 331 463 64
2019-10-15 12:35:33 GMT 48.863743 2.997750 37,975 331 462 0
2019-10-15 12:35:30 GMT 48.858994 3.001873 37,975 331 462 0
2019-10-15 12:35:27 GMT 48.853043 3.007014 38,000 331 462 0
2019-10-15 12:35:24 GMT 48.846268 3.012789 37,975 331 462 0
2019-10-15 12:35:21 GMT 48.841141 3.017226 37,975 331 462 0
2019-10-15 12:35:18 GMT 48.834042 3.023409 37,975 331 462 -64
2019-10-15 12:35:15 GMT 48.829620 3.027167 37,975 331 462 -64
2019-10-15 12:35:12 GMT 48.824066 3.032015 38,000 331 462 -64
2019-10-15 12:35:09 GMT 48.817097 3.038009 38,000 331 462 -64
2019-10-15 12:35:06 GMT 48.812622 3.041875 38,000 331 462 0
2019-10-15 12:35:02 GMT 48.804340 3.048995 38,000 331 462 0
2019-10-15 12:34:59 GMT 48.794750 3.057163 38,000 331 462 0
2019-10-15 12:34:52 GMT 48.788048 3.062873 38,000 331 462 0
2019-10-15 12:34:49 GMT 48.782089 3.067932 38,000 331 462 0
2019-10-15 12:34:46 GMT 48.774548 3.074293 38,000 331 461 0
2019-10-15 12:34:42 GMT 48.769775 3.078355 38,000 331 462 0
2019-10-15 12:34:39 GMT 48.753891 3.091877 38,000 331 462 0
2019-10-15 12:34:35 GMT 48.753891 3.091877 38,000 331 462 0
2019-10-15 12:34:31 GMT 48.747162 3.097511 38,000 331 462 0
2019-10-15 12:34:27 GMT 48.733627 3.108986 38,000 331 462 -64
2019-10-15 12:34:24 GMT 48.733627 3.108986 38,000 331 462 -64
2019-10-15 12:34:20 GMT 48.727341 3.114342 38,000 331 461 0
2019-10-15 12:34:17 GMT 48.710819 3.128285 38,000 331 461 0
2019-10-15 12:34:12 GMT 48.710819 3.128285 38,000 331 461 0
2019-10-15 12:34:09 GMT 48.707108 3.131456 38,000 331 461 0
2019-10-15 12:34:04 GMT 48.697926 3.139126 38,000 331 461 0
2019-10-15 12:34:01 GMT 48.692413 3.143780 38,000 332 462 0
2019-10-15 12:33:57 GMT 48.684814 3.150118 38,000 332 461 64
2019-10-15 12:33:51 GMT 48.674042 3.159003 38,000 332 461 64
2019-10-15 12:33:48 GMT 48.667694 3.164274 38,000 332 461 64
2019-10-15 12:33:45 GMT 48.663616 3.167604 38,000 332 462 0
2019-10-15 12:33:42 GMT 48.655327 3.174471 38,000 332 461 64
2019-10-15 12:33:37 GMT 48.647694 3.180759 37,975 332 462 0
2019-10-15 12:33:34 GMT 48.642883 3.184697 38,000 332 462 0
2019-10-15 12:33:30 GMT 48.633682 3.192251 38,000 332 462 0
2019-10-15 12:33:26 GMT 48.620544 3.203078 37,975 332 461 0
2019-10-15 12:33:19 GMT 48.614548 3.208008 37,975 332 461 0
2019-10-15 12:33:16 GMT 48.608963 3.212634 37,975 332 461 64
2019-10-15 12:33:13 GMT 48.602959 3.217549 37,975 332 462 0
2019-10-15 12:33:10 GMT 48.597744 3.221885 37,975 332 461 0
2019-10-15 12:33:07 GMT 48.591385 3.227093 37,975 332 460 0
2019-10-15 12:33:03 GMT 48.584194 3.233016 37,975 331 461 0
2019-10-15 12:32:59 GMT 48.577011 3.238995 38,000 332 461 -64
2019-10-15 12:32:56 GMT 48.569813 3.244870 37,975 332 461 -64
2019-10-15 12:32:53 GMT 48.564644 3.249134 38,000 332 461 -64
2019-10-15 12:32:49 GMT 48.549500 3.261742 38,000 331 461 0
2019-10-15 12:32:45 GMT 48.549500 3.261742 37,975 332 461 0
2019-10-15 12:32:42 GMT 48.543961 3.266249 37,975 332 461 -64
2019-10-15 12:32:39 GMT 48.539181 3.270240 38,000 332 460 0
2019-10-15 12:32:35 GMT 48.531174 3.276817 38,000 332 460 0
2019-10-15 12:32:32 GMT 48.526016 3.281109 38,000 332 460 0
2019-10-15 12:32:29 GMT 48.520000 3.286141 38,000 332 460 -64
2019-10-15 12:32:22 GMT 48.506104 3.297589 38,000 331 461 0
2019-10-15 12:32:18 GMT 48.500496 3.302259 38,000 331 461 0
2019-10-15 12:32:14 GMT 48.491417 3.309848 38,000 331 461 0
2019-10-15 12:32:10 GMT 48.478664 3.320473 38,000 331 461 0
2019-10-15 12:32:07 GMT 48.478664 3.320473 38,000 331 461 0
2019-10-15 12:32:03 GMT 48.464401 3.332449 38,000 332 461 64
2019-10-15 12:32:00 GMT 48.464401 3.332449 38,000 331 461 64
2019-10-15 12:31:57 GMT 48.444946 3.348647 38,000 332 461 0
2019-10-15 12:31:49 GMT 48.441330 3.351605 37,975 332 461 0
2019-10-15 12:31:42 GMT 48.431786 3.359503 37,975 332 462 0
2019-10-15 12:31:37 GMT 48.422985 3.366876 37,975 332 462 -64
2019-10-15 12:31:29 GMT 48.408600 3.378730 37,975 332 462 0
2019-10-15 12:31:26 GMT 48.403839 3.382733 37,975 332 462 0
2019-10-15 12:31:18 GMT 48.387543 3.396184 37,975 332 463 0
2019-10-15 12:31:15 GMT 48.381927 3.400847 37,975 332 463 0
2019-10-15 12:31:08 GMT 48.368336 3.412050 37,975 332 463 -64
2019-10-15 12:31:04 GMT 48.359955 3.418989 37,975 332 463 -64
2019-10-15 12:30:56 GMT 48.345566 3.430904 38,000 332 463 -64
2019-10-15 12:30:52 GMT 48.337517 3.437492 38,000 332 463 -64
2019-10-15 12:30:46 GMT 48.322311 3.450059 38,000 332 463 0
2019-10-15 12:30:40 GMT 48.317505 3.454073 38,000 332 463 -64
2019-10-15 12:30:36 GMT 48.306698 3.463006 38,000 332 463 -64
2019-10-15 12:30:33 GMT 48.298325 3.469919 38,000 332 463 -64
2019-10-15 12:30:30 GMT 48.290726 3.476187 38,000 332 465 0
2019-10-15 12:30:26 GMT 48.290726 3.476187 38,000 332 464 -64
2019-10-15 12:30:21 GMT 48.279602 3.485413 38,000 332 464 64
2019-10-15 12:30:18 GMT 48.274670 3.489532 38,025 332 465 0
2019-10-15 12:30:15 GMT 48.269920 3.493436 38,000 332 464 -64
2019-10-15 12:30:11 GMT 48.262253 3.499709 38,025 332 464 -64
2019-10-15 12:30:06 GMT 48.251907 3.508253 38,025 332 464 64
2019-10-15 12:30:00 GMT 48.232590 3.524076 38,025 332 465 0
2019-10-15 12:29:56 GMT 48.232590 3.524076 38,000 332 464 -64
2019-10-15 12:29:50 GMT 48.218674 3.535555 38,025 332 465 0
2019-10-15 12:29:47 GMT 48.216480 3.537309 38,025 332 465 0
2019-10-15 12:29:38 GMT 48.200047 3.550825 38,025 332 465 0
2019-10-15 12:29:34 GMT 48.192810 3.556753 38,025 332 465 0
2019-10-15 12:29:31 GMT 48.186314 3.562100 38,025 332 466 0
2019-10-15 12:29:25 GMT 48.174683 3.571613 38,025 332 466 0
2019-10-15 12:29:20 GMT 48.166157 3.578580 38,000 332 466 0
2019-10-15 12:29:15 GMT 48.156555 3.586418 38,025 332 466 0
2019-10-15 12:29:11 GMT 48.144836 3.595980 38,025 332 467 0
2019-10-15 12:29:03 GMT 48.133118 3.605507 38,025 332 466 0
2019-10-15 12:28:55 GMT 48.116951 3.618657 38,000 332 467 0
2019-10-15 12:28:52 GMT 48.111740 3.622948 38,000 332 466 -64
2019-10-15 12:28:47 GMT 48.104507 3.628853 38,000 332 466 -64
2019-10-15 12:28:42 GMT 48.094345 3.637161 38,025 332 466 -64
2019-10-15 12:28:37 GMT 48.075378 3.652743 38,025 332 466 0
2019-10-15 12:28:32 GMT 48.075378 3.652743 38,025 332 466 0
2019-10-15 12:28:26 GMT 48.065327 3.660983 38,025 332 466 0
2019-10-15 12:28:22 GMT 48.055298 3.669228 38,025 332 466 0
2019-10-15 12:28:13 GMT 48.039116 3.682533 38,025 332 466 -64
2019-10-15 12:28:09 GMT 48.025040 3.694016 38,025 332 467 0
2019-10-15 12:28:05 GMT 48.025040 3.694016 38,025 332 467 -64
2019-10-15 12:27:59 GMT 48.006088 3.709602 38,025 332 467 0
2019-10-15 12:27:49 GMT 47.994381 3.719083 38,025 332 467 0
2019-10-15 12:27:46 GMT 47.989563 3.722992 38,025 332 467 0
2019-10-15 12:27:42 GMT 47.975388 3.734506 38,000 332 463 -64
2019-10-15 12:27:39 GMT 47.975388 3.734506 38,025 332 468 64
2019-10-15 12:27:36 GMT 47.969288 3.739436 38,025 332 467 0
2019-10-15 12:27:30 GMT 47.958767 3.747958 38,025 332 467 0
2019-10-15 12:27:26 GMT 47.949875 3.755127 38,025 332 466 64
2019-10-15 12:27:22 GMT 47.942963 3.760689 37,975 332 464 -128
2019-10-15 12:27:15 GMT 47.929253 3.771761 38,000 332 467 128
2019-10-15 12:27:10 GMT 47.908630 3.788382 37,975 332 464 64
2019-10-15 12:27:04 GMT 47.908630 3.788382 37,975 332 466 64
2019-10-15 12:27:01 GMT 47.904160 3.791973 37,975 332 466 64
2019-10-15 12:26:54 GMT 47.885788 3.806900 37,975 332 464 64
2019-10-15 12:26:50 GMT 47.882401 3.809647 38,000 332 465 64
2019-10-15 12:26:45 GMT 47.873947 3.816481 37,975 332 464 -128
2019-10-15 12:26:42 GMT 47.868347 3.821045 37,975 332 464 -128
2019-10-15 12:26:36 GMT 47.854614 3.832169 37,975 332 465 64
2019-10-15 12:26:32 GMT 47.848206 3.837398 37,950 332 464 64
2019-10-15 12:26:29 GMT 47.843399 3.841232 37,950 332 464 -64
2019-10-15 12:26:20 GMT 47.825180 3.855721 37,975 332 464 -128
2019-10-15 12:26:13 GMT 47.809147 3.868455 37,975 332 463 0
2019-10-15 12:26:09 GMT 47.804626 3.872063 38,000 332 464 -64
2019-10-15 12:26:03 GMT 47.794098 3.880440 38,000 332 464 -64
2019-10-15 12:25:57 GMT 47.782059 3.890121 38,000 332 463 0
2019-10-15 12:25:53 GMT 47.774887 3.895991 38,000 332 463 -64
2019-10-15 12:25:46 GMT 47.762466 3.905983 38,000 332 463 -64
2019-10-15 12:25:43 GMT 47.756870 3.910569 38,000 332 463 0
2019-10-15 12:25:36 GMT 47.742809 3.921978 38,025 332 463 0
2019-10-15 12:25:33 GMT 47.735001 3.928299 38,000 332 463 0
2019-10-15 12:25:27 GMT 47.726395 3.935165 38,000 332 462 64
2019-10-15 12:25:22 GMT 47.713997 3.945148 38,025 332 463 0
2019-10-15 12:25:17 GMT 47.705292 3.952191 38,000 332 463 0
2019-10-15 12:25:14 GMT 47.701145 3.955501 38,000 332 463 0
2019-10-15 12:25:11 GMT 47.678661 3.973530 37,975 332 463 0
2019-10-15 12:25:02 GMT 47.678661 3.973530 38,000 332 462 0
2019-10-15 12:24:56 GMT 47.667801 3.982201 38,000 332 462 64
2019-10-15 12:24:50 GMT 47.657017 3.990854 38,000 332 463 0
2019-10-15 12:24:45 GMT 47.645798 3.999869 38,000 332 462 0
2019-10-15 12:24:42 GMT 47.641003 4.003742 38,000 332 462 0
2019-10-15 12:24:39 GMT 47.636215 4.007607 37,975 332 463 0
2019-10-15 12:24:33 GMT 47.623825 4.017545 37,975 332 462 64
2019-10-15 12:24:30 GMT 47.607346 4.030785 37,975 332 462 0
2019-10-15 12:24:24 GMT 47.607346 4.030785 37,975 332 462 0
2019-10-15 12:24:20 GMT 47.598267 4.038025 37,975 332 456 0
2019-10-15 12:24:17 GMT 47.594971 4.040703 37,975 332 462 64
2019-10-15 12:24:12 GMT 47.584862 4.048744 37,975 332 463 0
2019-10-15 12:24:09 GMT 47.579647 4.052828 37,975 332 463 0
2019-10-15 12:24:06 GMT 47.574005 4.057320 37,975 332 463 0
2019-10-15 12:24:02 GMT 47.555531 4.071984 37,975 332 463 0
2019-10-15 12:23:56 GMT 47.555531 4.071984 37,975 332 463 -64
2019-10-15 12:23:52 GMT 47.538681 4.085365 37,975 332 462 0
2019-10-15 12:23:47 GMT 47.538681 4.085365 37,975 332 463 0
2019-10-15 12:23:44 GMT 47.531845 4.090759 37,975 332 462 0
2019-10-15 12:23:41 GMT 47.525116 4.096115 37,975 332 462 0
2019-10-15 12:23:38 GMT 47.518570 4.101281 37,975 332 462 0
2019-10-15 12:23:35 GMT 47.515450 4.103816 38,000 332 462 -64
2019-10-15 12:23:32 GMT 47.507538 4.110084 37,975 332 462 0
2019-10-15 12:23:29 GMT 47.504608 4.112457 37,975 332 462 0
2019-10-15 12:23:25 GMT 47.495041 4.120010 37,975 332 462 -64
2019-10-15 12:23:19 GMT 47.485703 4.127495 38,000 332 463 -128
2019-10-15 12:23:15 GMT 47.476913 4.134499 38,000 332 463 -64
2019-10-15 12:23:11 GMT 47.469688 4.140226 38,000 332 463 0
2019-10-15 12:23:08 GMT 47.464005 4.144730 38,000 332 463 0
2019-10-15 12:23:02 GMT 47.453979 4.152626 38,000 332 463 0
2019-10-15 12:22:58 GMT 47.439056 4.164436 38,000 332 463 0
2019-10-15 12:22:55 GMT 47.433838 4.168556 38,000 332 463 0
2019-10-15 12:22:52 GMT 47.425793 4.174946 38,000 332 463 -128
2019-10-15 12:22:47 GMT 47.425793 4.174946 38,050 332 464 0
2019-10-15 12:22:43 GMT 47.416946 4.181918 38,025 332 463 -128
2019-10-15 12:22:40 GMT 47.402420 4.193327 38,025 332 463 -64
2019-10-15 12:22:35 GMT 47.393993 4.199946 38,025 332 463 -64
2019-10-15 12:22:31 GMT 47.393993 4.199946 38,050 332 463 -64
2019-10-15 12:22:27 GMT 47.386734 4.205721 38,050 332 463 64
2019-10-15 12:22:23 GMT 47.380325 4.210716 38,025 332 463 64
2019-10-15 12:22:18 GMT 47.369476 4.219299 38,025 332 463 0
2019-10-15 12:22:13 GMT 47.359818 4.226990 38,025 332 463 0
2019-10-15 12:22:10 GMT 47.355377 4.230492 38,025 332 463 0
2019-10-15 12:22:07 GMT 47.348980 4.235582 38,025 332 463 0
2019-10-15 12:22:02 GMT 47.339714 4.242906 38,025 332 464 -64
2019-10-15 12:21:56 GMT 47.326542 4.253329 38,025 332 464 -64
2019-10-15 12:21:53 GMT 47.321140 4.257625 38,050 332 456 -64
2019-10-15 12:21:49 GMT 47.313644 4.263540 38,050 332 464 -64
2019-10-15 12:21:46 GMT 47.309502 4.266850 38,050 332 464 0
2019-10-15 12:21:41 GMT 47.296329 4.277203 38,050 332 456 0
2019-10-15 12:21:38 GMT 47.294174 4.278969 38,050 332 464 0
2019-10-15 12:21:34 GMT 47.288086 4.283775 38,050 332 464 0
2019-10-15 12:21:28 GMT 47.276871 4.292633 38,050 332 464 -64
2019-10-15 12:21:25 GMT 47.253220 4.311359 38,050 332 464 0
2019-10-15 12:21:17 GMT 47.253220 4.311359 38,050 332 464 0
2019-10-15 12:21:14 GMT 47.249916 4.314035 38,050 332 464 0
2019-10-15 12:21:06 GMT 47.234924 4.325867 38,050 332 456 0
2019-10-15 12:21:03 GMT 47.228130 4.331219 38,050 332 463 64
2019-10-15 12:20:57 GMT 47.216820 4.340163 38,025 332 455 0
2019-10-15 12:20:54 GMT 47.211960 4.343925 38,050 332 463 0
2019-10-15 12:20:51 GMT 47.206345 4.348332 38,025 332 464 0
2019-10-15 12:20:43 GMT 47.192230 4.359444 38,025 332 463 0
2019-10-15 12:20:40 GMT 47.185768 4.364460 38,025 332 463 -64
2019-10-15 12:20:33 GMT 47.171631 4.375511 38,050 332 463 -64
2019-10-15 12:20:30 GMT 47.165981 4.379953 38,050 332 463 0
2019-10-15 12:20:25 GMT 47.156765 4.387137 38,050 332 456 0
2019-10-15 12:20:22 GMT 47.152313 4.390617 38,050 332 463 0
2019-10-15 12:20:19 GMT 47.145870 4.395588 38,050 332 463 0
2019-10-15 12:20:14 GMT 47.135769 4.403475 38,050 332 454 64
2019-10-15 12:20:11 GMT 47.128971 4.408757 38,025 333 463 0
2019-10-15 12:20:08 GMT 47.125343 4.411574 38,025 333 463 0
2019-10-15 12:20:02 GMT 47.110867 4.422842 38,025 332 462 0
2019-10-15 12:19:58 GMT 47.105209 4.427216 38,025 332 462 64
2019-10-15 12:19:53 GMT 47.095551 4.434769 38,025 332 455 64
2019-10-15 12:19:50 GMT 47.091064 4.438202 38,025 332 462 64
2019-10-15 12:19:47 GMT 47.084656 4.443195 38,025 332 462 64
2019-10-15 12:19:40 GMT 47.072643 4.452562 38,025 332 462 64
2019-10-15 12:19:36 GMT 47.064560 4.458801 38,000 332 462 64
2019-10-15 12:19:28 GMT 47.049728 4.470406 38,000 332 461 0
2019-10-15 12:19:25 GMT 47.042198 4.476295 38,000 332 461 0
2019-10-15 12:19:19 GMT 47.032425 4.483864 38,000 332 461 0
2019-10-15 12:19:15 GMT 47.024826 4.489838 38,000 332 460 0
2019-10-15 12:19:10 GMT 47.015247 4.497352 38,000 332 459 128
2019-10-15 12:19:07 GMT 47.007706 4.503227 38,000 332 458 64
2019-10-15 12:19:04 GMT 47.004913 4.505451 38,000 332 459 64
2019-10-15 12:18:58 GMT 46.991783 4.515733 37,975 332 458 64
2019-10-15 12:18:53 GMT 46.982288 4.523198 37,975 332 458 128
2019-10-15 12:18:48 GMT 46.975433 4.528564 37,975 332 458 128
2019-10-15 12:18:43 GMT 46.965481 4.536297 37,950 332 457 128
2019-10-15 12:18:36 GMT 46.952354 4.546509 37,950 333 453 0
2019-10-15 12:18:32 GMT 46.945187 4.552072 37,950 333 457 64
2019-10-15 12:18:28 GMT 46.936752 4.558571 37,950 332 456 -64
2019-10-15 12:18:25 GMT 46.920559 4.571228 37,950 332 455 0
2019-10-15 12:18:19 GMT 46.920559 4.571228 37,950 332 455 0
2019-10-15 12:18:15 GMT 46.905487 4.583015 37,950 333 453 0
2019-10-15 12:18:11 GMT 46.905487 4.583015 37,950 332 455 -64
2019-10-15 12:18:07 GMT 46.889236 4.595650 37,950 333 453 0
2019-10-15 12:18:02 GMT 46.889236 4.595650 37,950 333 454 -64
2019-10-15 12:17:59 GMT 46.880951 4.601967 37,950 333 454 -64
2019-10-15 12:17:55 GMT 46.867908 4.612004 37,975 333 453 0
2019-10-15 12:17:51 GMT 46.867908 4.612004 37,975 333 452 0
2019-10-15 12:17:48 GMT 46.862694 4.616043 37,975 333 452 0
2019-10-15 12:17:45 GMT 46.850124 4.625725 37,950 333 452 0
2019-10-15 12:17:41 GMT 46.850124 4.625725 37,950 333 452 64
2019-10-15 12:17:37 GMT 46.841766 4.632144 37,950 333 453 -64
2019-10-15 12:17:33 GMT 46.832901 4.638977 37,950 333 453 64
2019-10-15 12:17:28 GMT 46.825287 4.644872 37,950 333 453 -64
2019-10-15 12:17:25 GMT 46.820892 4.648222 37,950 333 453 -64
2019-10-15 12:17:17 GMT 46.803635 4.661486 37,950 333 453 -128
2019-10-15 12:17:14 GMT 46.799942 4.664383 37,975 333 453 -128
2019-10-15 12:17:04 GMT 46.762840 4.693016 37,975 333 454 -64
2019-10-15 12:16:54 GMT 46.762840 4.693016 37,975 333 454 0
2019-10-15 12:16:43 GMT 46.742340 4.708847 38,000 333 455 0
2019-10-15 12:16:33 GMT 46.723709 4.723183 38,000 333 454 0
2019-10-15 12:16:25 GMT 46.702332 4.739596 38,000 333 456 64
2019-10-15 12:16:21 GMT 46.702332 4.739596 38,000 333 455 0
2019-10-15 12:16:13 GMT 46.685658 4.752342 37,975 333 456 64
2019-10-15 12:16:10 GMT 46.681232 4.755707 37,975 333 459 -64
2019-10-15 12:16:05 GMT 46.671318 4.763329 37,975 333 455 0
2019-10-15 12:16:02 GMT 46.665710 4.767597 37,975 333 457 0
2019-10-15 12:15:59 GMT 46.661407 4.770880 37,975 333 458 64
2019-10-15 12:15:55 GMT 46.652206 4.777914 37,975 333 456 0
2019-10-15 12:15:51 GMT 46.645855 4.782829 37,975 333 457 0
2019-10-15 12:15:48 GMT 46.638035 4.788803 37,975 333 457 0
2019-10-15 12:15:43 GMT 46.631516 4.793790 37,975 333 457 0
2019-10-15 12:15:40 GMT 46.626297 4.797810 37,975 333 457 0
2019-10-15 12:15:36 GMT 46.618744 4.803638 37,975 333 458 64
2019-10-15 12:15:32 GMT 46.605587 4.813728 37,975 333 458 0
2019-10-15 12:15:24 GMT 46.595207 4.821693 37,975 333 459 0
2019-10-15 12:15:20 GMT 46.587250 4.827821 37,975 333 458 0
2019-10-15 12:15:13 GMT 46.575653 4.836662 37,975 333 458 0
2019-10-15 12:15:09 GMT 46.565739 4.844215 37,975 333 459 0
2019-10-15 12:15:05 GMT 46.557999 4.850129 37,975 333 459 0
2019-10-15 12:14:58 GMT 46.545959 4.859240 37,975 333 459 -64
2019-10-15 12:14:51 GMT 46.533524 4.868660 37,975 333 461 0
2019-10-15 12:14:47 GMT 46.526680 4.873810 37,975 333 460 0
2019-10-15 12:14:40 GMT 46.512177 4.884763 37,975 333 461 -64
2019-10-15 12:14:37 GMT 46.505451 4.889809 37,975 333 461 -64
2019-10-15 12:14:31 GMT 46.487915 4.902850 38,000 333 461 -64
2019-10-15 12:14:27 GMT 46.487915 4.902850 38,000 334 461 -64
2019-10-15 12:14:24 GMT 46.479851 4.908829 38,000 334 461 -64
2019-10-15 12:14:21 GMT 46.474686 4.912563 38,000 334 465 -64
2019-10-15 12:14:16 GMT 46.467697 4.917686 38,000 334 461 -64
2019-10-15 12:14:10 GMT 46.455826 4.926296 38,000 334 462 0
2019-10-15 12:14:07 GMT 46.450939 4.929840 38,000 334 463 0
2019-10-15 12:14:03 GMT 46.437469 4.939493 38,000 334 463 0
2019-10-15 12:13:56 GMT 46.426941 4.946996 38,000 334 464 -64
2019-10-15 12:13:53 GMT 46.422272 4.950413 38,000 334 464 -64
2019-10-15 12:13:45 GMT 46.406754 4.961600 38,025 328 463 0
2019-10-15 12:13:42 GMT 46.403046 4.964280 38,000 333 465 -64
2019-10-15 12:13:33 GMT 46.383579 4.978935 38,025 332 464 -64
2019-10-15 12:13:26 GMT 46.369583 4.990205 38,025 330 463 -64
2019-10-15 12:13:23 GMT 46.366837 4.992482 38,025 330 463 -64
2019-10-15 12:13:20 GMT 46.360153 4.998243 38,025 329 463 -64
2019-10-15 12:13:16 GMT 46.352829 5.004875 38,050 328 462 -64
2019-10-15 12:13:11 GMT 46.344383 5.012581 38,050 328 462 0
2019-10-15 12:13:06 GMT 46.333534 5.022400 38,050 328 463 64
2019-10-15 12:13:03 GMT 46.329300 5.026245 38,025 328 463 0
2019-10-15 12:13:00 GMT 46.322224 5.032700 38,025 328 463 0
2019-10-15 12:12:57 GMT 46.319595 5.035088 38,025 328 464 64
2019-10-15 12:12:52 GMT 46.308151 5.045471 38,025 328 464 64
2019-10-15 12:12:48 GMT 46.300297 5.052544 38,025 328 463 0
2019-10-15 12:12:42 GMT 46.291351 5.060611 38,025 328 463 0
2019-10-15 12:12:39 GMT 46.280457 5.070458 38,025 328 464 0
2019-10-15 12:12:36 GMT 46.280457 5.070458 38,025 328 464 0
2019-10-15 12:12:30 GMT 46.270458 5.079529 38,025 328 463 0
2019-10-15 12:12:25 GMT 46.258530 5.090421 38,025 328 462 0
2019-10-15 12:12:21 GMT 46.251137 5.097107 38,025 328 462 0
2019-10-15 12:12:17 GMT 46.245365 5.102394 38,025 328 462 0
2019-10-15 12:12:14 GMT 46.240711 5.106583 38,025 328 462 0
2019-10-15 12:12:10 GMT 46.234131 5.112528 38,025 328 462 0
2019-10-15 12:12:02 GMT 46.218319 5.126839 38,000 328 462 64
2019-10-15 12:11:58 GMT 46.211010 5.133430 38,025 328 462 64
2019-10-15 12:11:53 GMT 46.201748 5.141808 38,025 328 462 0
2019-10-15 12:11:49 GMT 46.191830 5.150734 38,025 328 462 0
2019-10-15 12:11:43 GMT 46.184383 5.157532 38,025 328 462 0
2019-10-15 12:11:39 GMT 46.176979 5.164192 38,025 328 462 -64
2019-10-15 12:11:36 GMT 46.170410 5.170139 38,025 328 462 0
2019-10-15 12:11:29 GMT 46.158916 5.180534 38,025 328 462 0
2019-10-15 12:11:25 GMT 46.150120 5.188499 38,000 328 462 0
2019-10-15 12:11:22 GMT 46.147327 5.191040 38,025 328 462 64
2019-10-15 12:11:18 GMT 46.140747 5.197002 38,000 328 462 0
2019-10-15 12:11:10 GMT 46.124142 5.211914 38,000 328 462 -64
2019-10-15 12:11:07 GMT 46.120701 5.215073 38,000 328 462 0
2019-10-15 12:11:04 GMT 46.114086 5.221046 38,000 328 462 0
2019-10-15 12:11:01 GMT 46.106689 5.227683 38,000 328 462 0
2019-10-15 12:10:58 GMT 46.103287 5.230728 38,025 328 462 0
2019-10-15 12:10:55 GMT 46.097855 5.235655 38,000 328 462 0
2019-10-15 12:10:47 GMT 46.083527 5.248584 38,000 328 461 0
2019-10-15 12:10:42 GMT 46.072052 5.258949 38,025 328 461 0
2019-10-15 12:10:38 GMT 46.066635 5.263858 38,025 328 462 0
2019-10-15 12:10:35 GMT 46.060040 5.269867 38,000 328 462 64
2019-10-15 12:10:30 GMT 46.045029 5.283486 38,000 329 462 0
2019-10-15 12:10:26 GMT 46.045029 5.283486 38,000 328 462 0
2019-10-15 12:10:22 GMT 46.038528 5.289381 38,000 328 462 0
2019-10-15 12:10:17 GMT 46.029282 5.297755 38,000 328 462 0
2019-10-15 12:10:13 GMT 46.014175 5.311488 38,000 328 462 0
2019-10-15 12:10:09 GMT 46.014175 5.311488 38,000 328 462 -64
2019-10-15 12:10:05 GMT 46.002689 5.321915 38,000 328 462 -64
2019-10-15 12:09:59 GMT 45.996452 5.327545 38,000 328 462 -64
2019-10-15 12:09:56 GMT 45.991013 5.332389 38,000 328 462 -64
2019-10-15 12:09:53 GMT 45.985325 5.337570 38,000 328 461 -64
2019-10-15 12:09:49 GMT 45.976913 5.345184 38,025 328 462 0
2019-10-15 12:09:46 GMT 45.974121 5.347729 38,025 328 462 -64
2019-10-15 12:09:43 GMT 45.967896 5.353289 38,025 328 462 0
2019-10-15 12:09:36 GMT 45.954803 5.365080 38,000 328 462 0
2019-10-15 12:09:33 GMT 45.948315 5.370872 38,025 328 462 0
2019-10-15 12:09:30 GMT 45.944733 5.374056 38,025 328 462 0
2019-10-15 12:09:27 GMT 45.938541 5.379593 38,000 328 462 0
2019-10-15 12:09:23 GMT 45.932373 5.385110 38,000 328 462 0
2019-10-15 12:09:20 GMT 45.927338 5.389665 38,000 328 462 0
2019-10-15 12:09:17 GMT 45.919281 5.396833 38,000 311 443 0
2019-10-15 12:09:13 GMT 45.913029 5.402458 38,000 329 462 64
2019-10-15 12:09:06 GMT 45.900692 5.413445 38,000 317 449 0
2019-10-15 12:09:02 GMT 45.893291 5.420036 38,000 329 462 64
2019-10-15 12:08:59 GMT 45.887924 5.424767 38,000 329 463 -64
2019-10-15 12:08:55 GMT 45.873272 5.437614 38,000 317 449 0
2019-10-15 12:08:52 GMT 45.873272 5.437614 38,000 329 463 -64
2019-10-15 12:08:48 GMT 45.866913 5.443123 38,000 311 443 0
2019-10-15 12:08:45 GMT 45.857491 5.451210 38,000 330 462 -64
2019-10-15 12:08:42 GMT 45.851532 5.456253 38,000 330 462 -64
2019-10-15 12:08:39 GMT 45.851532 5.456253 38,000 326 458 64
2019-10-15 12:08:34 GMT 45.842968 5.463638 38,000 313 447 -64
2019-10-15 12:08:31 GMT 45.837151 5.468719 38,000 327 459 0
2019-10-15 12:08:28 GMT 45.832214 5.473320 38,000 326 458 64
2019-10-15 12:08:25 GMT 45.824799 5.480704 38,000 313 447 -64
2019-10-15 12:08:19 GMT 45.815048 5.491891 37,975 318 450 0
2019-10-15 12:08:16 GMT 45.810745 5.497384 38,000 311 443 0
2019-10-15 12:08:09 GMT 45.795578 5.520355 38,000 311 444 -64
2019-10-15 12:08:03 GMT 45.793625 5.523651 38,000 311 444 -64
2019-10-15 12:08:00 GMT 45.789688 5.530410 38,000 311 443 -64
2019-10-15 12:07:55 GMT 45.778976 5.548699 38,000 310 443 -64
2019-10-15 12:07:52 GMT 45.778976 5.548699 38,000 310 443 -64
2019-10-15 12:07:49 GMT 45.775360 5.554862 38,000 310 443 -64
2019-10-15 12:07:46 GMT 45.771416 5.561623 38,000 310 443 -64
2019-10-15 12:07:42 GMT 45.766064 5.570686 38,000 311 443 0
2019-10-15 12:07:38 GMT 45.760757 5.579750 38,000 311 443 -64
2019-10-15 12:07:35 GMT 45.757080 5.585999 38,000 311 443 0
2019-10-15 12:07:32 GMT 45.751236 5.595792 38,000 311 443 0
2019-10-15 12:07:27 GMT 45.745789 5.605037 38,000 311 442 0
2019-10-15 12:07:24 GMT 45.740982 5.613143 38,000 311 442 0
2019-10-15 12:07:21 GMT 45.732265 5.627884 38,000 311 442 -64
2019-10-15 12:07:17 GMT 45.732265 5.627884 38,000 311 443 0
2019-10-15 12:07:12 GMT 45.723793 5.642166 38,000 311 443 -64
2019-10-15 12:07:09 GMT 45.720490 5.647728 38,000 311 443 -64
2019-10-15 12:07:06 GMT 45.718689 5.650724 38,000 311 443 -64
2019-10-15 12:07:03 GMT 45.713608 5.659299 38,000 311 443 -64
2019-10-15 12:07:00 GMT 45.708893 5.667204 38,000 311 442 -64
2019-10-15 12:06:57 GMT 45.706558 5.671156 38,000 311 442 -64
2019-10-15 12:06:54 GMT 45.701752 5.679262 38,000 311 442 -64
2019-10-15 12:06:50 GMT 45.695572 5.689712 38,025 311 442 0
2019-10-15 12:06:46 GMT 45.692459 5.694937 38,000 311 442 0
2019-10-15 12:06:43 GMT 45.686787 5.704514 38,000 311 442 0
2019-10-15 12:06:40 GMT 45.683712 5.709663 38,000 311 442 0
2019-10-15 12:06:37 GMT 45.678452 5.718518 38,000 311 442 0
2019-10-15 12:06:32 GMT 45.673233 5.727226 38,000 311 443 0
2019-10-15 12:06:29 GMT 45.667603 5.736806 38,000 311 443 0
2019-10-15 12:06:26 GMT 45.663929 5.742897 38,000 311 443 0
2019-10-15 12:06:22 GMT 45.659409 5.750472 38,000 311 444 -64
2019-10-15 12:06:18 GMT 45.655151 5.757573 38,000 311 444 -64
2019-10-15 12:06:15 GMT 45.646317 5.772378 38,000 311 444 -64
2019-10-15 12:06:12 GMT 45.646317 5.772378 38,000 311 444 0
2019-10-15 12:06:09 GMT 45.640697 5.781830 38,000 311 444 0
2019-10-15 12:06:05 GMT 45.636475 5.788857 38,000 311 444 -64
2019-10-15 12:06:01 GMT 45.631573 5.797073 38,000 311 444 -64
2019-10-15 12:05:57 GMT 45.621334 5.814102 38,000 311 444 0
2019-10-15 12:05:51 GMT 45.616837 5.821682 38,000 311 443 128
2019-10-15 12:05:48 GMT 45.614025 5.826393 37,950 311 443 -128
2019-10-15 12:05:45 GMT 45.611160 5.831195 37,975 311 443 256
2019-10-15 12:05:42 GMT 45.606670 5.838753 37,950 311 443 -64
2019-10-15 12:05:39 GMT 45.603241 5.844459 37,950 311 443 -64
2019-10-15 12:05:36 GMT 45.598755 5.852074 37,950 311 443 -64
2019-10-15 12:05:32 GMT 45.593079 5.861608 37,950 311 443 0
2019-10-15 12:05:29 GMT 45.589073 5.868279 37,950 311 443 64
2019-10-15 12:05:25 GMT 45.584564 5.875810 37,950 311 443 0
2019-10-15 12:05:22 GMT 45.574642 5.892448 37,950 311 444 -128
2019-10-15 12:05:18 GMT 45.574642 5.892448 37,950 311 443 0
2019-10-15 12:05:15 GMT 45.571243 5.898117 37,950 311 443 -64
2019-10-15 12:05:11 GMT 45.565567 5.907630 37,950 311 444 -128
2019-10-15 12:05:08 GMT 45.560024 5.916893 37,950 311 444 -128
2019-10-15 12:05:04 GMT 45.556252 5.923210 37,950 311 444 -128
2019-10-15 12:05:01 GMT 45.551468 5.931210 37,950 311 444 -64
2019-10-15 12:04:57 GMT 45.545746 5.940792 37,975 311 443 0
2019-10-15 12:04:54 GMT 45.538925 5.952105 37,975 311 443 0
2019-10-15 12:04:45 GMT 45.529438 5.967988 37,950 311 443 0
2019-10-15 12:04:41 GMT 45.525341 5.974821 37,950 311 444 -64
2019-10-15 12:04:38 GMT 45.522270 5.979979 38,000 311 444 -128
2019-10-15 12:04:35 GMT 45.517429 5.988085 37,950 311 444 -128
2019-10-15 12:04:32 GMT 45.513428 5.994742 37,975 311 444 -128
2019-10-15 12:04:27 GMT 45.503510 6.011263 37,975 311 445 -192
2019-10-15 12:04:24 GMT 45.503510 6.011263 37,975 311 445 -128
2019-10-15 12:04:20 GMT 45.496445 6.023058 38,000 311 445 -128
2019-10-15 12:04:17 GMT 45.493515 6.027897 38,000 311 446 -128
2019-10-15 12:04:14 GMT 45.490101 6.033638 38,025 311 446 -192
2019-10-15 12:04:10 GMT 45.478928 6.052194 38,000 311 446 -128
2019-10-15 12:04:07 GMT 45.478928 6.052194 38,025 311 446 -128
2019-10-15 12:04:03 GMT 45.475765 6.057419 38,025 311 446 -192
2019-10-15 12:03:59 GMT 45.461754 6.080732 38,050 311 450 64
2019-10-15 12:03:55 GMT 45.461754 6.080732 38,050 311 447 -128
2019-10-15 12:03:52 GMT 45.460327 6.083156 38,025 311 455 -64
2019-10-15 12:03:49 GMT 45.455746 6.090713 38,050 311 448 -64
2019-10-15 12:03:45 GMT 45.450859 6.098886 38,050 311 449 64
2019-10-15 12:03:42 GMT 45.444580 6.109249 38,050 311 449 64
2019-10-15 12:03:38 GMT 45.441650 6.114219 38,050 311 449 64
2019-10-15 12:03:32 GMT 45.432190 6.129969 38,025 311 450 64
2019-10-15 12:03:29 GMT 45.428375 6.136266 38,025 311 451 64
2019-10-15 12:03:23 GMT 45.419716 6.150736 38,025 311 453 0
2019-10-15 12:03:16 GMT 45.407227 6.171504 38,050 311 457 -64
2019-10-15 12:03:13 GMT 45.400860 6.182020 38,025 311 455 -64
2019-10-15 12:03:10 GMT 45.397568 6.187461 38,025 311 456 -64
2019-10-15 12:03:06 GMT 45.390839 6.198643 38,050 311 457 -64
2019-10-15 12:03:01 GMT 45.390839 6.198643 38,025 311 456 0
2019-10-15 12:02:58 GMT 45.384979 6.208387 38,025 311 456 0
2019-10-15 12:02:51 GMT 45.375351 6.224291 38,025 311 457 -64
2019-10-15 12:02:47 GMT 45.371487 6.230655 38,025 311 457 -64
2019-10-15 12:02:44 GMT 45.367355 6.237488 38,050 311 458 -128
2019-10-15 12:02:40 GMT 45.362640 6.245259 38,025 311 462 0
2019-10-15 12:02:34 GMT 45.353798 6.259795 38,050 311 458 -128
2019-10-15 12:02:31 GMT 45.342625 6.278151 38,050 311 458 -64
2019-10-15 12:02:26 GMT 45.342625 6.278151 38,050 311 458 -64
2019-10-15 12:02:22 GMT 45.334991 6.290719 38,050 311 459 -64
2019-10-15 12:02:19 GMT 45.331638 6.296238 38,050 311 459 0
2019-10-15 12:02:15 GMT 45.327850 6.302490 38,050 311 459 0
2019-10-15 12:02:11 GMT 45.321629 6.312717 38,050 311 460 64
2019-10-15 12:02:08 GMT 45.317207 6.320019 38,050 311 460 64
2019-10-15 12:02:04 GMT 45.312737 6.327321 38,050 311 460 64
2019-10-15 12:02:01 GMT 45.307709 6.335695 38,025 311 460 64
2019-10-15 12:01:58 GMT 45.302078 6.344939 38,025 311 460 64
2019-10-15 12:01:55 GMT 45.299423 6.349294 38,025 311 461 64
2019-10-15 12:01:50 GMT 45.292328 6.361084 38,025 311 462 64
2019-10-15 12:01:47 GMT 45.289032 6.366446 38,025 311 462 64
2019-10-15 12:01:44 GMT 45.284042 6.374751 38,000 311 462 0
2019-10-15 12:01:40 GMT 45.276566 6.387076 38,000 311 462 0
2019-10-15 12:01:37 GMT 45.274239 6.390894 38,000 311 462 64
2019-10-15 12:01:31 GMT 45.266785 6.403198 38,000 311 462 0
2019-10-15 12:01:28 GMT 45.256130 6.420906 38,000 311 462 0
2019-10-15 12:01:24 GMT 45.256130 6.420906 38,000 311 462 -64
2019-10-15 12:01:21 GMT 45.252274 6.427198 38,000 311 463 -64
2019-10-15 12:01:18 GMT 45.246094 6.437400 38,000 311 463 0
2019-10-15 12:01:13 GMT 45.240955 6.445893 38,025 311 463 -64
2019-10-15 12:01:08 GMT 45.233784 6.457616 38,025 312 462 0
2019-10-15 12:01:05 GMT 45.229065 6.465454 38,025 311 463 -64
2019-10-15 12:01:02 GMT 45.219868 6.480661 38,025 311 463 -64
2019-10-15 12:00:58 GMT 45.219868 6.480661 38,025 312 462 0
2019-10-15 12:00:54 GMT 45.215057 6.488538 38,025 311 463 -64
2019-10-15 12:00:51 GMT 45.211487 6.494394 38,025 311 464 -64
2019-10-15 12:00:48 GMT 45.205490 6.504168 38,025 311 464 -64
2019-10-15 12:00:43 GMT 45.197708 6.516920 38,025 311 464 -64
2019-10-15 12:00:40 GMT 45.195614 6.520319 38,025 311 464 -64
2019-10-15 12:00:37 GMT 45.189003 6.531104 38,025 311 464 -128
2019-10-15 12:00:34 GMT 45.184860 6.537937 38,025 311 464 -64
2019-10-15 12:00:31 GMT 45.182419 6.541835 38,050 311 463 -64
2019-10-15 12:00:24 GMT 45.171032 6.560446 38,050 311 464 -128
2019-10-15 12:00:21 GMT 45.168365 6.564854 38,050 311 464 -128
2019-10-15 12:00:15 GMT 45.159721 6.579002 38,050 311 463 -64
2019-10-15 12:00:11 GMT 45.154312 6.587742 38,050 311 463 64
2019-10-15 12:00:08 GMT 45.150085 6.594610 38,050 311 463 64
2019-10-15 12:00:04 GMT 45.143784 6.604876 38,050 311 463 64
2019-10-15 12:00:01 GMT 45.139004 6.612631 38,025 312 464 64
2019-10-15 11:59:58 GMT 45.135979 6.617521 38,025 312 464 0
2019-10-15 11:59:53 GMT 45.128761 6.629244 38,025 311 463 0
2019-10-15 11:59:48 GMT 45.120476 6.642709 38,025 311 462 0
2019-10-15 11:59:42 GMT 45.111168 6.657849 38,025 312 462 0
2019-10-15 11:59:38 GMT 45.100597 6.674931 38,025 311 462 0
2019-10-15 11:59:33 GMT 45.092827 6.687592 38,025 311 462 0
2019-10-15 11:59:27 GMT 45.092827 6.687592 38,025 312 456 -64
2019-10-15 11:59:18 GMT 45.080933 6.706957 38,025 311 460 0
2019-10-15 11:59:15 GMT 45.074947 6.716666 38,025 312 457 0
2019-10-15 11:59:08 GMT 45.066330 6.730630 38,025 311 460 -64
2019-10-15 11:59:05 GMT 45.061543 6.738438 38,025 312 460 64
2019-10-15 11:58:59 GMT 45.052044 6.753845 38,025 311 459 64
2019-10-15 11:58:55 GMT 45.047623 6.761080 38,025 311 459 128
2019-10-15 11:58:51 GMT 45.037811 6.777060 37,975 311 459 128
2019-10-15 11:58:48 GMT 45.032410 6.785823 37,975 312 456 -64
2019-10-15 11:58:44 GMT 45.032410 6.785823 37,975 311 459 64
2019-10-15 11:58:37 GMT 45.021832 6.802949 37,975 312 458 0
2019-10-15 11:58:32 GMT 45.014603 6.814662 37,975 303 444 0
2019-10-15 11:58:28 GMT 45.008797 6.824051 37,975 312 457 -64
2019-10-15 11:58:24 GMT 45.004887 6.830415 38,025 308 450 0
2019-10-15 11:58:21 GMT 44.999313 6.839447 37,975 312 457 0
2019-10-15 11:58:18 GMT 44.995651 6.845333 37,975 312 457 64
2019-10-15 11:58:12 GMT 44.987057 6.859153 37,975 312 457 64
2019-10-15 11:58:06 GMT 44.974503 6.879207 37,975 312 457 0
2019-10-15 11:57:59 GMT 44.970383 6.885812 37,975 312 457 -64
2019-10-15 11:57:54 GMT 44.962555 6.898172 37,975 312 456 -64
2019-10-15 11:57:50 GMT 44.949692 6.918509 37,975 312 456 -64
2019-10-15 11:57:44 GMT 44.949692 6.918509 37,975 312 456 -64
2019-10-15 11:57:39 GMT 44.940125 6.933681 37,975 311 454 0
2019-10-15 11:57:35 GMT 44.936642 6.939407 37,975 310 453 0
2019-10-15 11:57:32 GMT 44.933212 6.945256 37,975 310 453 0
2019-10-15 11:57:27 GMT 44.925659 6.959054 37,975 307 448 0
2019-10-15 11:57:24 GMT 44.923050 6.964090 37,975 304 445 -192
2019-10-15 11:57:21 GMT 44.918579 6.973237 37,975 304 445 -192
2019-10-15 11:57:18 GMT 44.915176 6.980504 38,025 303 444 0
2019-10-15 11:57:14 GMT 44.910919 6.989855 38,025 303 444 -64
2019-10-15 11:57:11 GMT 44.908291 6.995544 38,025 303 444 -64
2019-10-15 11:57:07 GMT 44.902908 7.007446 38,025 303 443 0
2019-10-15 11:57:02 GMT 44.898376 7.017321 38,025 303 443 0
2019-10-15 11:56:58 GMT 44.893204 7.028634 38,025 303 443 0
2019-10-15 11:56:53 GMT 44.887531 7.041031 38,025 303 444 -64
2019-10-15 11:56:49 GMT 44.883224 7.050345 38,025 303 444 -64
2019-10-15 11:56:42 GMT 44.875565 7.066889 38,025 303 444 0
2019-10-15 11:56:39 GMT 44.871277 7.076242 38,025 303 444 0
2019-10-15 11:56:33 GMT 44.859879 7.101053 38,000 303 443 -128
2019-10-15 11:56:29 GMT 44.859879 7.101053 38,025 303 443 -128
2019-10-15 11:56:20 GMT 44.850861 7.120775 38,000 303 444 0
2019-10-15 11:56:15 GMT 44.845215 7.133075 37,975 303 444 0
2019-10-15 11:56:11 GMT 44.840885 7.142520 37,975 303 444 64
2019-10-15 11:56:04 GMT 44.832458 7.160942 38,000 303 444 0
2019-10-15 11:56:00 GMT 44.828156 7.170345 38,000 303 444 0
2019-10-15 11:55:48 GMT 44.814674 7.199729 37,975 303 443 64
2019-10-15 11:55:39 GMT 44.805817 7.218933 38,000 303 443 64
2019-10-15 11:55:28 GMT 44.793915 7.244764 37,975 303 443 0
2019-10-15 11:55:25 GMT 44.789200 7.254900 37,975 303 443 -128
2019-10-15 11:55:18 GMT 44.781830 7.270987 37,975 303 443 -128
2019-10-15 11:55:12 GMT 44.774921 7.285945 38,000 303 443 -128
2019-10-15 11:55:07 GMT 44.769939 7.296731 38,000 303 443 -64
2019-10-15 11:54:58 GMT 44.759491 7.319380 38,000 303 443 0
2019-10-15 11:54:54 GMT 44.755463 7.328077 38,000 303 443 -64
2019-10-15 11:54:51 GMT 44.751877 7.335853 38,000 304 441 64
2019-10-15 11:54:46 GMT 44.746429 7.347643 38,000 303 442 -64
2019-10-15 11:54:40 GMT 44.739819 7.361979 38,000 303 442 -64
2019-10-15 11:54:36 GMT 44.735817 7.370754 38,000 303 442 -64
2019-10-15 11:54:32 GMT 44.729874 7.383728 38,025 303 442 -64
2019-10-15 11:54:26 GMT 44.719292 7.406728 38,025 304 441 64
2019-10-15 11:54:15 GMT 44.712433 7.421657 38,025 303 441 -64
2019-10-15 11:54:09 GMT 44.704391 7.439017 37,950 304 442 -64
2019-10-15 11:54:05 GMT 44.699936 7.448665 38,050 304 442 0
2019-10-15 11:54:01 GMT 44.697006 7.454943 37,950 304 441 0
2019-10-15 11:53:54 GMT 44.689407 7.471292 38,025 304 441 64
2019-10-15 11:53:50 GMT 44.683914 7.483063 38,025 304 441 64
2019-10-15 11:53:44 GMT 44.677277 7.497319 38,025 304 441 64
2019-10-15 11:53:33 GMT 44.664688 7.524327 37,975 304 442 128
2019-10-15 11:53:28 GMT 44.660122 7.534075 37,975 304 441 -64
2019-10-15 11:53:23 GMT 44.652954 7.549349 37,975 304 442 128
2019-10-15 11:53:13 GMT 44.631447 7.595371 37,950 304 441 -64
2019-10-15 11:53:03 GMT 44.631447 7.595371 37,950 304 442 0
2019-10-15 11:53:00 GMT 44.628113 7.602539 37,950 304 442 0
2019-10-15 11:52:55 GMT 44.622601 7.614329 37,950 304 442 -64
2019-10-15 11:52:48 GMT 44.614548 7.631613 37,950 304 440 0
2019-10-15 11:52:44 GMT 44.603668 7.654986 37,950 304 438 0
2019-10-15 11:52:38 GMT 44.603668 7.654986 37,950 304 438 64
2019-10-15 11:52:31 GMT 44.595413 7.672744 37,950 304 438 64
2019-10-15 11:52:26 GMT 44.589733 7.684870 37,950 304 438 0
2019-10-15 11:52:16 GMT 44.579315 7.707171 37,950 304 438 -64
2019-10-15 11:52:06 GMT 44.568649 7.729928 37,975 304 436 -128
2019-10-15 11:51:59 GMT 44.560135 7.748173 37,975 304 437 0
2019-10-15 11:51:53 GMT 44.554504 7.760271 37,975 304 437 0
2019-10-15 11:51:49 GMT 44.549515 7.770865 37,975 304 437 0
2019-10-15 11:51:44 GMT 44.537750 7.795977 37,975 304 436 -64
2019-10-15 11:51:39 GMT 44.537750 7.795977 37,975 304 436 -128
2019-10-15 11:51:35 GMT 44.533676 7.804544 37,975 304 436 -128
2019-10-15 11:51:31 GMT 44.529648 7.813176 38,025 304 441 -192
2019-10-15 11:51:28 GMT 44.525864 7.821194 38,000 304 437 -128
2019-10-15 11:51:23 GMT 44.521397 7.830706 38,000 304 439 0
2019-10-15 11:51:18 GMT 44.513535 7.847312 38,000 304 437 0
2019-10-15 11:51:13 GMT 44.509735 7.855421 38,000 304 438 64
2019-10-15 11:51:05 GMT 44.500492 7.875121 38,000 304 439 0
2019-10-15 11:51:02 GMT 44.497192 7.882102 38,000 304 439 0
2019-10-15 11:50:54 GMT 44.488579 7.900443 38,000 304 440 -64
2019-10-15 11:50:50 GMT 44.483826 7.910549 38,000 304 441 -192
2019-10-15 11:50:47 GMT 44.480476 7.917659 38,000 304 441 -128
2019-10-15 11:50:44 GMT 44.476288 7.926636 38,000 304 441 -192
2019-10-15 11:50:39 GMT 44.470654 7.938493 38,025 304 441 -128
2019-10-15 11:50:36 GMT 44.468582 7.942984 38,025 304 441 -64
2019-10-15 11:50:33 GMT 44.465206 7.950149 38,025 304 441 -64
2019-10-15 11:50:28 GMT 44.458969 7.963346 38,025 304 441 -64
2019-10-15 11:50:24 GMT 44.453896 7.974065 38,025 304 441 0
2019-10-15 11:50:21 GMT 44.452011 7.978036 38,025 304 441 0
2019-10-15 11:50:14 GMT 44.444366 7.994319 38,025 304 442 0
2019-10-15 11:50:11 GMT 44.439510 8.004545 38,025 304 442 0
2019-10-15 11:50:04 GMT 44.432098 8.020281 38,025 304 443 0
2019-10-15 11:49:59 GMT 44.427292 8.030483 38,025 304 443 0
2019-10-15 11:49:53 GMT 44.420059 8.045785 38,025 304 443 64
2019-10-15 11:49:50 GMT 44.416981 8.052376 38,025 304 444 64
2019-10-15 11:49:42 GMT 44.407112 8.073343 38,025 304 445 -64
2019-10-15 11:49:33 GMT 44.393372 8.102417 38,000 304 445 -64
2019-10-15 11:49:23 GMT 44.385372 8.119231 38,025 304 444 0
2019-10-15 11:49:20 GMT 44.382477 8.125371 38,025 304 445 0
2019-10-15 11:49:12 GMT 44.373501 8.144219 38,000 304 445 -64
2019-10-15 11:49:09 GMT 44.369171 8.153396 38,000 304 445 0
2019-10-15 11:49:02 GMT 44.361649 8.169185 38,000 304 445 0
2019-10-15 11:48:59 GMT 44.358765 8.175332 38,000 304 445 -128
2019-10-15 11:48:55 GMT 44.354599 8.184011 38,025 304 445 -128
2019-10-15 11:48:48 GMT 44.347092 8.199790 38,050 304 445 256
2019-10-15 11:48:44 GMT 44.340546 8.213588 38,050 304 445 0
2019-10-15 11:48:38 GMT 44.335419 8.224271 38,000 304 444 192
2019-10-15 11:48:35 GMT 44.331482 8.232422 38,025 304 445 256
2019-10-15 11:48:32 GMT 44.327866 8.240073 38,025 304 445 256
2019-10-15 11:48:28 GMT 44.316879 8.263027 37,950 304 446 256
2019-10-15 11:48:23 GMT 44.311020 8.275321 37,975 304 447 -64
2019-10-15 11:48:17 GMT 44.311020 8.275321 37,950 304 448 -128
2019-10-15 11:48:12 GMT 44.305161 8.287577 37,950 304 447 -64
2019-10-15 11:48:09 GMT 44.301270 8.295789 37,975 304 447 -128
2019-10-15 11:48:06 GMT 44.298317 8.301913 37,975 304 447 -128
2019-10-15 11:48:03 GMT 44.293900 8.311157 37,975 304 448 -64
2019-10-15 11:47:59 GMT 44.290237 8.318808 37,975 304 448 -128
2019-10-15 11:47:54 GMT 44.285095 8.329579 38,000 304 447 64
2019-10-15 11:47:49 GMT 44.277790 8.344987 38,000 304 447 0
2019-10-15 11:47:46 GMT 44.275368 8.350078 38,000 304 447 64
2019-10-15 11:47:42 GMT 44.270901 8.359390 38,000 304 447 -64
2019-10-15 11:47:39 GMT 44.267029 8.367528 38,000 304 448 -128
2019-10-15 11:47:36 GMT 44.263824 8.374128 38,000 304 448 -192
2019-10-15 11:47:31 GMT 44.257957 8.386387 38,000 304 448 -192
2019-10-15 11:47:28 GMT 44.255211 8.392081 38,050 304 447 -64
2019-10-15 11:47:25 GMT 44.251831 8.399179 38,025 304 447 -128
2019-10-15 11:47:20 GMT 44.245155 8.413049 38,025 304 447 -128
2019-10-15 11:47:15 GMT 44.240250 8.423113 38,025 304 446 -64
2019-10-15 11:47:07 GMT 44.230396 8.443529 38,050 304 447 0
2019-10-15 11:47:04 GMT 44.227467 8.449558 38,050 304 447 0
2019-10-15 11:46:58 GMT 44.220528 8.463827 38,025 304 447 -64
2019-10-15 11:46:54 GMT 44.215874 8.473474 38,025 304 447 -64
2019-10-15 11:46:46 GMT 44.205681 8.494374 38,050 305 449 -64
2019-10-15 11:46:41 GMT 44.200699 8.504557 38,050 305 447 0
2019-10-15 11:46:38 GMT 44.196461 8.513131 38,050 305 448 -64
2019-10-15 11:46:34 GMT 44.192226 8.521794 38,050 305 447 0
2019-10-15 11:46:25 GMT 44.181381 8.544042 38,050 305 447 0
2019-10-15 11:46:22 GMT 44.178352 8.550241 38,050 305 447 0
2019-10-15 11:46:19 GMT 44.175156 8.556753 38,050 304 447 -128
2019-10-15 11:46:16 GMT 44.170990 8.565376 38,050 304 446 -128
2019-10-15 11:46:13 GMT 44.168018 8.571559 38,050 304 446 0
2019-10-15 11:46:03 GMT 44.151630 8.605565 38,050 304 445 0
2019-10-15 11:45:59 GMT 44.151630 8.605565 38,050 329 458 -64
2019-10-15 11:45:54 GMT 44.144714 8.620371 38,050 303 445 0
2019-10-15 11:45:51 GMT 44.141392 8.627603 38,050 303 444 64
2019-10-15 11:45:42 GMT 44.132812 8.646623 38,050 302 444 192
2019-10-15 11:45:32 GMT 44.120537 8.672725 38,000 307 448 64
2019-10-15 11:45:23 GMT 44.108917 8.691974 38,000 310 449 0
2019-10-15 11:45:20 GMT 44.106430 8.695613 38,000 318 452 0
2019-10-15 11:45:11 GMT 44.091751 8.713627 38,000 324 455 -64
2019-10-15 11:45:08 GMT 44.087402 8.718035 38,000 331 457 128
2019-10-15 11:45:01 GMT 44.072205 8.731257 38,000 331 459 0
2019-10-15 11:44:53 GMT 44.059113 8.741604 38,000 331 457 128
2019-10-15 11:44:50 GMT 44.053638 8.745902 37,975 331 457 128
2019-10-15 11:44:47 GMT 44.048126 8.750227 37,975 331 456 64
2019-10-15 11:44:42 GMT 44.037140 8.758850 37,975 331 457 0
2019-10-15 11:44:36 GMT 44.025757 8.767809 37,975 331 456 64
2019-10-15 11:44:32 GMT 44.020248 8.772072 37,975 332 456 128
2019-10-15 11:44:29 GMT 44.012905 8.777684 37,950 332 456 64
2019-10-15 11:44:22 GMT 43.999779 8.787624 37,950 332 455 0
2019-10-15 11:44:16 GMT 43.991817 8.793509 37,950 333 455 -64
2019-10-15 11:44:12 GMT 43.984276 8.798937 37,975 333 455 -128
2019-10-15 11:44:08 GMT 43.977081 8.804073 37,975 333 455 -128
2019-10-15 11:44:05 GMT 43.971474 8.808027 37,975 333 455 -64
2019-10-15 11:44:01 GMT 43.963531 8.813654 37,975 333 455 -128
2019-10-15 11:43:58 GMT 43.958267 8.817423 37,975 333 453 -64
2019-10-15 11:43:55 GMT 43.951458 8.822283 38,000 333 455 -192
2019-10-15 11:43:48 GMT 43.938747 8.831373 38,000 333 453 -64
2019-10-15 11:43:44 GMT 43.931255 8.836735 38,000 333 453 -64
2019-10-15 11:43:36 GMT 43.916122 8.847591 38,000 333 453 0
2019-10-15 11:43:33 GMT 43.909000 8.852692 38,000 333 453 0
2019-10-15 11:43:27 GMT 43.899445 8.859452 38,000 333 452 64
2019-10-15 11:43:20 GMT 43.886284 8.868779 38,000 333 453 -128
2019-10-15 11:43:17 GMT 43.881165 8.872441 38,025 333 452 64
2019-10-15 11:43:14 GMT 43.874771 8.877081 38,025 332 453 64
2019-10-15 11:43:07 GMT 43.862228 8.886343 38,025 333 451 64
2019-10-15 11:43:02 GMT 43.853977 8.892386 38,025 332 453 0
2019-10-15 11:42:55 GMT 43.841316 8.901672 38,025 333 454 0
2019-10-15 11:42:52 GMT 43.835770 8.905760 38,000 333 452 64
2019-10-15 11:42:47 GMT 43.825562 8.913234 38,000 333 454 0
2019-10-15 11:42:44 GMT 43.820801 8.916683 38,000 333 454 0
2019-10-15 11:42:41 GMT 43.813244 8.922141 38,000 333 454 -64
2019-10-15 11:42:38 GMT 43.808125 8.925868 38,000 333 454 -64
2019-10-15 11:42:34 GMT 43.802162 8.930185 38,000 333 454 0
2019-10-15 11:42:31 GMT 43.796585 8.934248 38,000 333 454 -128
2019-10-15 11:42:27 GMT 43.789078 8.939741 38,025 333 454 0
2019-10-15 11:42:23 GMT 43.781570 8.945171 38,025 333 454 128
2019-10-15 11:42:19 GMT 43.773674 8.951045 38,000 331 453 128
2019-10-15 11:42:16 GMT 43.768112 8.955135 38,000 331 453 128
2019-10-15 11:42:13 GMT 43.762253 8.959670 38,000 331 453 128
2019-10-15 11:42:08 GMT 43.751842 8.967983 37,975 329 451 128
2019-10-15 11:42:02 GMT 43.737625 8.980429 37,950 327 450 64
2019-10-15 11:41:53 GMT 43.725494 8.991786 37,975 326 450 -64
2019-10-15 11:41:49 GMT 43.721489 8.995710 37,975 325 450 -128
2019-10-15 11:41:46 GMT 43.710251 9.006553 37,975 325 450 -64
2019-10-15 11:41:43 GMT 43.710251 9.006553 37,975 325 450 0
2019-10-15 11:41:38 GMT 43.702217 9.014348 37,975 325 449 0
2019-10-15 11:41:33 GMT 43.685272 9.030893 37,975 325 449 -64
2019-10-15 11:41:29 GMT 43.685272 9.030893 37,975 325 449 0
2019-10-15 11:41:26 GMT 43.680523 9.035536 37,950 325 448 64
2019-10-15 11:41:22 GMT 43.672607 9.043318 37,950 325 448 64
2019-10-15 11:41:16 GMT 43.663624 9.052146 37,975 325 449 -128
2019-10-15 11:41:13 GMT 43.652390 9.063210 37,975 325 448 -64
2019-10-15 11:41:06 GMT 43.647427 9.068102 37,975 325 448 0
2019-10-15 11:41:03 GMT 43.642025 9.073465 37,950 324 450 -128
2019-10-15 11:40:59 GMT 43.635925 9.079481 37,950 324 450 -128
2019-10-15 11:40:54 GMT 43.628357 9.086971 37,975 325 448 0
2019-10-15 11:40:51 GMT 43.620472 9.094783 37,975 325 448 0
2019-10-15 11:40:47 GMT 43.615116 9.100146 37,975 325 449 0
2019-10-15 11:40:43 GMT 43.608627 9.106516 37,975 325 449 0
2019-10-15 11:40:40 GMT 43.603573 9.111524 37,975 325 448 64
2019-10-15 11:40:37 GMT 43.597103 9.117933 37,975 325 449 0
2019-10-15 11:40:32 GMT 43.590305 9.124669 37,975 325 449 -64
2019-10-15 11:40:29 GMT 43.583588 9.131363 37,975 325 449 0
2019-10-15 11:40:26 GMT 43.580658 9.134301 37,975 324 449 0
2019-10-15 11:40:23 GMT 43.575596 9.139382 37,975 324 449 0
2019-10-15 11:40:19 GMT 43.569168 9.145863 37,975 324 450 0
2019-10-15 11:40:15 GMT 43.562347 9.152633 37,975 325 449 -128
2019-10-15 11:40:10 GMT 43.551590 9.163364 38,000 324 450 -128
2019-10-15 11:40:04 GMT 43.543335 9.171622 38,000 324 450 -128
2019-10-15 11:39:58 GMT 43.532867 9.182079 38,025 325 449 -64
2019-10-15 11:39:54 GMT 43.526436 9.188494 38,025 325 449 -64
2019-10-15 11:39:47 GMT 43.514984 9.199873 38,025 325 449 0
2019-10-15 11:39:38 GMT 43.498039 9.216745 38,025 325 451 0
2019-10-15 11:39:35 GMT 43.495148 9.219637 38,025 325 451 0
2019-10-15 11:39:32 GMT 43.490078 9.224657 38,025 325 451 64
2019-10-15 11:39:27 GMT 43.476746 9.237905 38,025 325 451 64
2019-10-15 11:39:24 GMT 43.469193 9.245442 38,025 325 451 64
2019-10-15 11:39:21 GMT 43.469193 9.245442 38,025 325 453 0
2019-10-15 11:39:17 GMT 43.462692 9.251894 38,000 325 452 0
2019-10-15 11:39:14 GMT 43.457584 9.256897 38,000 325 452 0
2019-10-15 11:39:05 GMT 43.444244 9.270098 38,000 325 452 128
2019-10-15 11:39:02 GMT 43.433350 9.280828 38,000 325 453 0
2019-10-15 11:38:55 GMT 43.427216 9.286896 38,000 325 454 0
2019-10-15 11:38:51 GMT 43.419571 9.294434 38,000 325 453 0
2019-10-15 11:38:46 GMT 43.408676 9.305101 38,000 325 454 -64
2019-10-15 11:38:40 GMT 43.398788 9.314771 38,000 325 454 64
2019-10-15 11:38:35 GMT 43.392132 9.321180 38,000 325 454 64
2019-10-15 11:38:30 GMT 43.382401 9.330650 38,000 325 455 0
2019-10-15 11:38:27 GMT 43.379379 9.333588 37,975 325 455 64
2019-10-15 11:38:24 GMT 43.374664 9.338187 37,975 325 455 0
2019-10-15 11:38:19 GMT 43.365875 9.346749 37,975 325 455 64
2019-10-15 11:38:14 GMT 43.355591 9.356755 37,975 325 456 0
2019-10-15 11:38:09 GMT 43.346836 9.365387 37,975 325 455 64
2019-10-15 11:38:04 GMT 43.339554 9.372488 37,975 325 456 0
2019-10-15 11:37:59 GMT 43.326920 9.384943 37,975 325 455 0
2019-10-15 11:37:53 GMT 43.320969 9.390819 37,975 325 455 0
2019-10-15 11:37:47 GMT 43.309616 9.401997 37,975 325 456 -64
2019-10-15 11:37:42 GMT 43.302704 9.408768 37,975 325 456 -64
2019-10-15 11:37:38 GMT 43.292835 9.418488 37,975 325 456 0
2019-10-15 11:37:34 GMT 43.279709 9.431436 37,975 325 456 0
2019-10-15 11:37:30 GMT 43.279709 9.431436 37,975 325 456 0
2019-10-15 11:37:26 GMT 43.275005 9.436144 37,975 325 456 0
2019-10-15 11:37:23 GMT 43.269512 9.441507 37,975 325 456 0
2019-10-15 11:37:20 GMT 43.264019 9.446934 37,975 325 456 -64
2019-10-15 11:37:16 GMT 43.257828 9.453147 37,975 324 457 -128
2019-10-15 11:37:08 GMT 43.244282 9.466553 37,975 325 456 -64
2019-10-15 11:37:04 GMT 43.235950 9.474858 37,975 325 456 -64
2019-10-15 11:36:57 GMT 43.222404 9.488198 38,000 325 456 -64
2019-10-15 11:36:54 GMT 43.218773 9.491795 37,975 325 456 -64
2019-10-15 11:36:46 GMT 43.205612 9.504707 38,025 325 457 -64
2019-10-15 11:36:34 GMT 43.184418 9.525473 38,025 325 456 -64
2019-10-15 11:36:26 GMT 43.170868 9.538749 38,025 325 457 -64
2019-10-15 11:36:16 GMT 43.142612 9.566345 38,025 325 460 0
2019-10-15 11:36:10 GMT 43.142612 9.566345 38,050 325 458 0
2019-10-15 11:36:03 GMT 43.130493 9.578162 38,050 325 458 -64
2019-10-15 11:35:59 GMT 43.117996 9.590362 38,050 325 459 64
2019-10-15 11:35:55 GMT 43.117996 9.590362 38,050 325 458 64
2019-10-15 11:35:52 GMT 43.112400 9.595773 38,050 325 458 64
2019-10-15 11:35:49 GMT 43.108025 9.599958 38,025 325 460 -64
2019-10-15 11:35:41 GMT 43.092613 9.614934 38,025 325 459 64
2019-10-15 11:35:35 GMT 43.080414 9.626770 38,025 325 460 0
2019-10-15 11:35:32 GMT 43.068501 9.638345 38,025 325 459 64
2019-10-15 11:35:26 GMT 43.068501 9.638345 38,025 325 460 0
2019-10-15 11:35:23 GMT 43.062195 9.644527 38,025 325 460 0
2019-10-15 11:35:20 GMT 43.057423 9.649200 38,025 325 460 0
2019-10-15 11:35:14 GMT 43.046722 9.659665 38,025 325 460 0
2019-10-15 11:35:10 GMT 43.040497 9.665797 38,000 325 457 -64
2019-10-15 11:35:06 GMT 43.033447 9.672677 38,025 325 460 -64
2019-10-15 11:35:03 GMT 43.028366 9.677678 38,025 325 460 -64
2019-10-15 11:35:00 GMT 43.023514 9.682404 38,025 325 460 -64
2019-10-15 11:34:52 GMT 43.008450 9.697069 38,025 325 459 64
2019-10-15 11:34:49 GMT 43.004398 9.701059 38,025 325 459 64
2019-10-15 11:34:42 GMT 42.991875 9.713287 38,025 325 460 0
2019-10-15 11:34:38 GMT 42.985592 9.719369 38,025 325 459 0
2019-10-15 11:34:33 GMT 42.975632 9.729096 38,025 325 459 -64
2019-10-15 11:34:28 GMT 42.968262 9.736314 38,025 325 459 -64
2019-10-15 11:34:22 GMT 42.957184 9.747045 38,000 325 458 -64
2019-10-15 11:34:18 GMT 42.951328 9.752786 38,025 325 459 0
2019-10-15 11:34:11 GMT 42.938461 9.765440 38,025 325 459 0
2019-10-15 11:34:08 GMT 42.932968 9.770806 38,025 325 459 64
2019-10-15 11:34:01 GMT 42.920139 9.783391 38,025 325 458 64
2019-10-15 11:33:58 GMT 42.914017 9.789393 38,025 325 459 128
2019-10-15 11:33:51 GMT 42.904312 9.798889 38,000 325 458 0
2019-10-15 11:33:47 GMT 42.897327 9.805625 38,000 325 458 0
2019-10-15 11:33:38 GMT 42.882198 9.820273 38,000 325 458 0
2019-10-15 11:33:35 GMT 42.877075 9.825227 38,000 325 458 0
2019-10-15 11:33:26 GMT 42.860134 9.841723 38,000 325 457 64
2019-10-15 11:33:19 GMT 42.849564 9.852054 38,025 325 455 -64
2019-10-15 11:33:16 GMT 42.844398 9.857091 38,000 325 456 -64
2019-10-15 11:33:09 GMT 42.831177 9.869908 38,000 325 456 -64
2019-10-15 11:33:05 GMT 42.824936 9.875942 38,000 325 456 -64
2019-10-15 11:32:58 GMT 42.812836 9.887695 38,000 325 456 -64
2019-10-15 11:32:53 GMT 42.803375 9.896871 38,025 325 455 64
2019-10-15 11:32:46 GMT 42.789780 9.909980 38,000 325 455 64
2019-10-15 11:32:42 GMT 42.785065 9.914537 37,975 325 455 0
2019-10-15 11:32:37 GMT 42.776295 9.923082 38,000 325 455 0
2019-10-15 11:32:32 GMT 42.768238 9.930874 38,000 325 457 -64
2019-10-15 11:32:27 GMT 42.759476 9.939381 37,950 325 455 0
2019-10-15 11:32:24 GMT 42.755402 9.943314 38,000 325 455 0
2019-10-15 11:32:19 GMT 42.746613 9.951803 38,000 325 455 0
2019-10-15 11:32:16 GMT 42.738586 9.959554 38,000 325 456 64
2019-10-15 11:32:12 GMT 42.734535 9.963450 38,000 325 455 -64
2019-10-15 11:32:06 GMT 42.722122 9.975336 38,000 325 455 -64
2019-10-15 11:32:03 GMT 42.717682 9.979643 38,000 325 455 -64
2019-10-15 11:31:56 GMT 42.705917 9.990879 38,000 325 453 0
2019-10-15 11:31:52 GMT 42.690262 10.005798 38,000 325 451 320
2019-10-15 11:31:47 GMT 42.690262 10.005798 38,000 325 451 320
2019-10-15 11:31:42 GMT 42.679417 10.016146 37,950 325 451 -64
2019-10-15 11:31:37 GMT 42.673874 10.021466 37,950 325 451 0
2019-10-15 11:31:34 GMT 42.667419 10.027646 37,950 325 450 64
2019-10-15 11:31:30 GMT 42.661865 10.032881 37,950 325 450 64
2019-10-15 11:31:26 GMT 42.654922 10.039506 37,950 325 451 -128
2019-10-15 11:31:23 GMT 42.650574 10.043689 37,950 325 451 128
2019-10-15 11:31:19 GMT 42.643341 10.050555 37,950 325 451 0
2019-10-15 11:31:14 GMT 42.633469 10.060027 37,950 325 451 -64
2019-10-15 11:31:11 GMT 42.628098 10.065224 37,950 325 450 -64
2019-10-15 11:31:02 GMT 42.612946 10.079831 37,950 325 451 -64
2019-10-15 11:30:59 GMT 42.602325 10.090006 37,950 325 450 -64
2019-10-15 11:30:55 GMT 42.602325 10.090006 38,025 325 450 -64
2019-10-15 11:30:52 GMT 42.597252 10.094903 37,950 325 450 -64
2019-10-15 11:30:49 GMT 42.592552 10.099374 37,950 325 450 -64
2019-10-15 11:30:41 GMT 42.578400 10.112915 37,950 325 451 -128
2019-10-15 11:30:36 GMT 42.568954 10.121966 37,975 325 450 -64
2019-10-15 11:30:31 GMT 42.561314 10.129267 37,975 325 451 -128
2019-10-15 11:30:28 GMT 42.557312 10.133099 37,975 325 451 -128
2019-10-15 11:30:24 GMT 42.550827 10.139320 37,975 325 452 -64
2019-10-15 11:30:19 GMT 42.540573 10.149058 37,975 325 452 -64
2019-10-15 11:30:14 GMT 42.530502 10.158608 37,975 325 452 -128
2019-10-15 11:30:10 GMT 42.525604 10.163352 38,000 325 456 64
2019-10-15 11:30:02 GMT 42.511456 10.176853 38,025 325 458 0
2019-10-15 11:29:59 GMT 42.501617 10.186324 38,025 325 453 -128
2019-10-15 11:29:51 GMT 42.493534 10.194099 38,025 325 453 0
2019-10-15 11:29:47 GMT 42.486645 10.200742 38,000 325 456 64
2019-10-15 11:29:43 GMT 42.480423 10.206673 38,025 325 454 128
2019-10-15 11:29:39 GMT 42.466114 10.220351 38,000 325 456 64
2019-10-15 11:29:35 GMT 42.466114 10.220351 38,000 325 455 128
2019-10-15 11:29:30 GMT 42.456985 10.229083 38,000 325 456 64
2019-10-15 11:29:26 GMT 42.448891 10.236767 38,000 325 457 64
2019-10-15 11:29:22 GMT 42.442608 10.242771 37,975 325 457 0
2019-10-15 11:29:18 GMT 42.433136 10.251805 38,000 325 458 -64
2019-10-15 11:29:15 GMT 42.430801 10.253989 38,000 325 458 0
2019-10-15 11:29:08 GMT 42.418633 10.265638 38,000 325 458 0
2019-10-15 11:29:04 GMT 42.412395 10.271578 38,000 325 458 0
2019-10-15 11:29:00 GMT 42.405319 10.278285 38,000 325 458 -64
2019-10-15 11:28:57 GMT 42.400223 10.283203 38,000 325 460 -64
2019-10-15 11:28:54 GMT 42.387222 10.295500 38,000 325 459 -64
2019-10-15 11:28:49 GMT 42.387222 10.295500 38,000 325 460 -64
2019-10-15 11:28:45 GMT 42.380173 10.302180 38,025 325 460 -128
2019-10-15 11:28:42 GMT 42.375320 10.306799 38,025 325 460 -128
2019-10-15 11:28:38 GMT 42.367935 10.313799 38,025 325 460 -128
2019-10-15 11:28:35 GMT 42.360535 10.320906 38,050 325 466 128
2019-10-15 11:28:28 GMT 42.341587 10.338901 38,050 325 465 64
2019-10-15 11:28:23 GMT 42.341587 10.338901 38,050 325 460 0
2019-10-15 11:28:19 GMT 42.334946 10.345251 38,050 325 461 0
2019-10-15 11:28:15 GMT 42.326782 10.352954 38,050 325 465 64
2019-10-15 11:28:12 GMT 42.322639 10.356914 38,050 325 462 0
2019-10-15 11:28:06 GMT 42.312260 10.366750 38,050 325 462 0
2019-10-15 11:28:03 GMT 42.303974 10.374543 38,050 325 463 -64
2019-10-15 11:27:55 GMT 42.286842 10.390831 38,050 325 464 -64
2019-10-15 11:27:52 GMT 42.286842 10.390831 38,050 325 464 0
2019-10-15 11:27:49 GMT 42.282349 10.395126 38,050 325 464 -64
2019-10-15 11:27:41 GMT 42.266357 10.410376 38,050 325 464 -64
2019-10-15 11:27:37 GMT 42.261051 10.415486 38,050 325 464 64
2019-10-15 11:27:34 GMT 42.253231 10.423023 38,050 325 464 64
2019-10-15 11:27:30 GMT 42.248749 10.427274 38,050 325 465 128
2019-10-15 11:27:27 GMT 42.242805 10.432988 38,050 325 465 128
2019-10-15 11:27:21 GMT 42.232285 10.443080 38,025 325 465 128
2019-10-15 11:27:17 GMT 42.225540 10.449496 38,025 325 465 128
2019-10-15 11:27:09 GMT 42.210217 10.463903 38,000 327 467 64
2019-10-15 11:27:06 GMT 42.199650 10.473037 38,000 330 469 0
2019-10-15 11:27:02 GMT 42.199650 10.473037 38,025 331 469 0
2019-10-15 11:26:59 GMT 42.193222 10.478148 38,025 330 469 0
2019-10-15 11:26:54 GMT 42.184708 10.484470 38,000 333 470 128
2019-10-15 11:26:49 GMT 42.174465 10.491752 38,000 333 470 64
2019-10-15 11:26:43 GMT 42.163376 10.499496 38,000 333 470 128
2019-10-15 11:26:39 GMT 42.154354 10.505868 38,000 333 470 128
2019-10-15 11:26:31 GMT 42.139088 10.516599 37,975 333 470 64
2019-10-15 11:26:26 GMT 42.129215 10.523497 37,975 333 470 0
2019-10-15 11:26:19 GMT 42.116089 10.532695 37,975 333 470 -64
2019-10-15 11:26:14 GMT 42.095047 10.547258 38,000 333 470 0
2019-10-15 11:26:08 GMT 42.095047 10.547258 37,975 333 469 0
2019-10-15 11:26:01 GMT 42.073929 10.561732 38,000 333 470 0
2019-10-15 11:25:57 GMT 42.073929 10.561732 37,975 333 470 0
2019-10-15 11:25:54 GMT 42.068558 10.565398 37,975 333 470 0
2019-10-15 11:25:51 GMT 42.062851 10.569285 37,975 333 470 -64
2019-10-15 11:25:48 GMT 42.055386 10.574405 37,975 333 470 -64
2019-10-15 11:25:45 GMT 42.050446 10.577774 38,000 333 470 -64
2019-10-15 11:25:42 GMT 42.042675 10.583092 38,000 333 469 64
2019-10-15 11:25:39 GMT 42.033085 10.589671 38,000 333 470 0
2019-10-15 11:25:26 GMT 42.014877 10.602119 38,000 333 469 0
2019-10-15 11:25:16 GMT 41.995098 10.615731 37,975 333 469 64
2019-10-15 11:25:05 GMT 41.974476 10.629911 37,975 333 470 0
2019-10-15 11:24:57 GMT 41.957611 10.641507 37,975 333 470 0
2019-10-15 11:24:50 GMT 41.944427 10.650683 37,975 333 470 0
2019-10-15 11:24:45 GMT 41.926296 10.663317 37,975 333 470 0
2019-10-15 11:24:41 GMT 41.926296 10.663317 37,975 333 470 0
2019-10-15 11:24:38 GMT 41.918655 10.668661 37,975 333 470 0
2019-10-15 11:24:33 GMT 41.901260 10.680771 37,975 333 469 -64
2019-10-15 11:24:25 GMT 41.895477 10.684779 37,975 333 469 -64
2019-10-15 11:24:20 GMT 41.886841 10.690821 37,975 333 470 -64
2019-10-15 11:24:15 GMT 41.876541 10.697875 37,975 333 470 -64
2019-10-15 11:24:12 GMT 41.870758 10.701897 38,000 333 470 -64
2019-10-15 11:24:04 GMT 41.855942 10.712107 38,000 333 470 -64
2019-10-15 11:24:01 GMT 41.846924 10.718313 38,000 333 469 0
2019-10-15 11:23:58 GMT 41.844036 10.720293 38,000 333 469 -64
2019-10-15 11:23:54 GMT 41.835800 10.725965 38,000 333 470 0
2019-10-15 11:23:51 GMT 41.827511 10.731662 38,000 333 469 0
2019-10-15 11:23:44 GMT 41.815659 10.739760 38,000 333 469 -64
2019-10-15 11:23:40 GMT 41.806503 10.746002 38,000 333 469 -64
2019-10-15 11:23:33 GMT 41.795391 10.753571 38,000 333 469 -64
2019-10-15 11:23:28 GMT 41.785492 10.760359 38,000 333 469 0
2019-10-15 11:23:21 GMT 41.772720 10.769029 38,000 333 469 0
2019-10-15 11:23:18 GMT 41.764618 10.774586 38,000 333 469 0
2019-10-15 11:23:10 GMT 41.751305 10.783656 38,000 333 469 -64
2019-10-15 11:23:07 GMT 41.744274 10.788446 38,000 333 469 0
2019-10-15 11:23:03 GMT 41.734085 10.795378 38,000 333 469 -64
2019-10-15 11:22:57 GMT 41.724072 10.802179 38,000 333 469 -64
2019-10-15 11:22:49 GMT 41.711243 10.810921 38,025 333 469 -64
2019-10-15 11:22:45 GMT 41.703075 10.816487 38,025 333 468 0
2019-10-15 11:22:41 GMT 41.694790 10.822172 38,025 333 468 0
2019-10-15 11:22:37 GMT 41.685852 10.828304 38,025 333 468 0
2019-10-15 11:22:34 GMT 41.681618 10.831178 38,025 333 468 0
2019-10-15 11:22:30 GMT 41.672287 10.837576 38,025 333 468 64
2019-10-15 11:22:27 GMT 41.667252 10.841009 38,000 333 468 64
2019-10-15 11:22:20 GMT 41.654430 10.849766 38,000 333 468 64
2019-10-15 11:22:17 GMT 41.648285 10.853981 38,000 333 469 64
2019-10-15 11:22:09 GMT 41.633110 10.864457 38,000 333 469 0
2019-10-15 11:22:03 GMT 41.621613 10.872313 38,000 333 469 0
2019-10-15 11:21:58 GMT 41.609802 10.880397 38,000 333 470 0
2019-10-15 11:21:52 GMT 41.600967 10.886452 38,000 333 469 0
2019-10-15 11:21:49 GMT 41.592468 10.892242 38,000 333 469 0
2019-10-15 11:21:46 GMT 41.589478 10.894318 38,000 333 469 0
2019-10-15 11:21:42 GMT 41.578857 10.901496 38,000 333 469 -64
2019-10-15 11:21:39 GMT 41.559792 10.914534 38,000 333 469 -64
2019-10-15 11:21:31 GMT 41.559792 10.914534 38,000 333 469 -64
2019-10-15 11:21:26 GMT 41.547958 10.922595 38,000 333 469 -64
2019-10-15 11:21:20 GMT 41.537910 10.929480 38,025 333 469 0
2019-10-15 11:21:17 GMT 41.532074 10.933394 38,025 333 469 0
2019-10-15 11:21:11 GMT 41.517792 10.943069 38,025 333 469 0
2019-10-15 11:21:05 GMT 41.509048 10.949000 38,025 333 469 -64
2019-10-15 11:20:59 GMT 41.498669 10.955988 38,025 333 469 -64
2019-10-15 11:20:53 GMT 41.485931 10.964668 38,025 333 469 0
2019-10-15 11:20:50 GMT 41.479347 10.969082 38,025 333 469 0
2019-10-15 11:20:47 GMT 41.475159 10.971956 38,025 334 469 0
2019-10-15 11:20:43 GMT 41.466476 10.977776 38,025 334 469 0
2019-10-15 11:20:37 GMT 41.455719 10.985017 38,025 334 469 -64
2019-10-15 11:20:34 GMT 41.449600 10.989139 38,025 334 469 0
2019-10-15 11:20:26 GMT 41.434284 10.999422 38,025 334 469 0
2019-10-15 11:20:23 GMT 41.429306 11.002808 38,025 334 469 0
2019-10-15 11:20:12 GMT 41.407890 11.017179 38,025 334 469 0
2019-10-15 11:20:06 GMT 41.393921 11.026466 38,025 334 469 64
2019-10-15 11:20:02 GMT 41.388885 11.029836 38,025 334 469 0
2019-10-15 11:19:55 GMT 41.374744 11.039262 38,025 334 468 0
2019-10-15 11:19:52 GMT 41.368927 11.043152 38,025 334 468 0
2019-10-15 11:19:46 GMT 41.356522 11.051392 38,025 334 468 64
2019-10-15 11:19:42 GMT 41.348694 11.056580 38,025 334 468 64
2019-10-15 11:19:35 GMT 41.334732 11.065979 38,000 334 468 64
2019-10-15 11:19:30 GMT 41.326904 11.071167 38,000 334 468 64
2019-10-15 11:19:23 GMT 41.313217 11.080322 38,000 334 467 -64
2019-10-15 11:19:19 GMT 41.304173 11.086391 38,000 334 467 -64
2019-10-15 11:19:15 GMT 41.295135 11.092468 38,000 334 467 -64
2019-10-15 11:19:09 GMT 41.286530 11.098314 38,000 334 467 0
2019-10-15 11:19:04 GMT 41.275028 11.106054 38,000 333 466 0
2019-10-15 11:18:59 GMT 41.266418 11.111859 38,000 333 467 0
2019-10-15 11:18:50 GMT 41.247982 11.124406 38,000 333 466 0
2019-10-15 11:18:43 GMT 41.233200 11.134521 38,000 333 465 0
2019-10-15 11:18:36 GMT 41.221775 11.142259 38,000 333 466 -64
2019-10-15 11:18:32 GMT 41.214020 11.147522 38,000 333 465 -64
2019-10-15 11:18:29 GMT 41.208275 11.151435 38,000 333 465 0
2019-10-15 11:18:24 GMT 41.200150 11.156921 38,000 333 465 0
2019-10-15 11:18:21 GMT 41.191143 11.163046 38,000 333 466 64
2019-10-15 11:18:18 GMT 41.187057 11.165833 38,000 333 466 64
2019-10-15 11:18:15 GMT 41.182159 11.169101 38,000 334 465 64
2019-10-15 11:18:08 GMT 41.168285 11.178464 38,000 334 465 0
2019-10-15 11:18:04 GMT 41.160465 11.183707 38,000 334 465 0
2019-10-15 11:18:01 GMT 41.154739 11.187500 38,000 334 465 0
2019-10-15 11:17:58 GMT 41.147057 11.192634 38,000 334 464 -64
2019-10-15 11:17:52 GMT 41.137939 11.198730 38,000 334 465 -64
2019-10-15 11:17:47 GMT 41.128098 11.205322 38,000 334 465 -64
2019-10-15 11:17:41 GMT 41.115875 11.213562 38,000 334 464 0
2019-10-15 11:17:36 GMT 41.106445 11.219849 38,000 334 464 0
2019-10-15 11:17:31 GMT 41.097107 11.226092 38,000 334 463 0
2019-10-15 11:17:28 GMT 41.089287 11.231273 38,000 334 464 0
2019-10-15 11:17:20 GMT 41.076645 11.239685 38,000 334 464 0
2019-10-15 11:17:16 GMT 41.068039 11.245422 37,975 334 463 64
2019-10-15 11:17:08 GMT 41.051674 11.256180 37,975 334 464 0
2019-10-15 11:17:05 GMT 41.047993 11.258552 37,975 334 464 0
2019-10-15 11:16:58 GMT 41.034866 11.267166 37,975 334 464 -64
2019-10-15 11:16:55 GMT 41.027836 11.271723 37,975 334 464 -64
2019-10-15 11:16:48 GMT 41.014343 11.280579 38,000 334 463 0
2019-10-15 11:16:45 GMT 41.006561 11.285645 37,975 334 463 0
2019-10-15 11:16:36 GMT 40.991806 11.295194 38,000 334 463 0
2019-10-15 11:16:32 GMT 40.984821 11.299751 38,000 334 463 0
2019-10-15 11:16:23 GMT 40.965958 11.311951 37,975 334 463 64
2019-10-15 11:16:14 GMT 40.949631 11.322535 37,975 334 462 0
2019-10-15 11:16:11 GMT 40.944275 11.326093 37,975 334 462 0
2019-10-15 11:16:02 GMT 40.927193 11.337454 37,975 333 461 -64
2019-10-15 11:15:52 GMT 40.907501 11.351196 38,000 331 460 -64
2019-10-15 11:15:41 GMT 40.880966 11.370662 38,000 331 460 64
2019-10-15 11:15:30 GMT 40.866577 11.381042 38,000 333 460 0
2019-10-15 11:15:19 GMT 40.846710 11.394226 38,000 335 461 -64
2019-10-15 11:15:09 GMT 40.824821 11.407179 38,000 338 462 -64
2019-10-15 11:14:59 GMT 40.806110 11.417167 38,000 339 462 0
2019-10-15 11:14:49 GMT 40.787022 11.426967 38,000 339 462 -64
2019-10-15 11:14:46 GMT 40.778229 11.431519 38,025 339 462 64
2019-10-15 11:14:39 GMT 40.766212 11.437704 38,000 339 462 64
2019-10-15 11:14:36 GMT 40.761108 11.440369 38,000 339 462 64
2019-10-15 11:14:28 GMT 40.745361 11.448486 38,000 339 462 0
2019-10-15 11:14:25 GMT 40.739445 11.451562 38,000 339 462 0
2019-10-15 11:14:17 GMT 40.722885 11.460083 38,000 339 462 -64
2019-10-15 11:14:14 GMT 40.718170 11.462524 38,000 339 462 -64
2019-10-15 11:14:11 GMT 40.710114 11.466614 38,025 339 462 -64
2019-10-15 11:14:07 GMT 40.702377 11.470642 38,025 339 463 0
2019-10-15 11:14:04 GMT 40.696472 11.473694 38,000 339 462 0
2019-10-15 11:13:58 GMT 40.682602 11.480835 38,025 339 463 0
2019-10-15 11:13:55 GMT 40.678207 11.483093 38,025 339 463 0
2019-10-15 11:13:50 GMT 40.665569 11.489639 38,025 339 462 0
2019-10-15 11:13:47 GMT 40.662460 11.491272 38,025 339 462 0
2019-10-15 11:13:43 GMT 40.655273 11.494934 38,025 339 462 0
2019-10-15 11:13:39 GMT 40.646347 11.499512 38,025 339 462 0
2019-10-15 11:13:36 GMT 40.640335 11.502561 38,025 339 463 -64
2019-10-15 11:13:30 GMT 40.628860 11.508423 38,025 339 462 0
2019-10-15 11:13:26 GMT 40.618790 11.513550 38,025 339 463 0
2019-10-15 11:13:19 GMT 40.607117 11.519470 38,025 339 462 0
2019-10-15 11:13:15 GMT 40.599472 11.523315 38,025 339 462 64
2019-10-15 11:13:09 GMT 40.584518 11.530838 38,025 340 462 64
2019-10-15 11:13:05 GMT 40.579025 11.533585 38,000 339 462 64
2019-10-15 11:13:01 GMT 40.568974 11.538641 38,000 339 462 64
2019-10-15 11:12:58 GMT 40.564957 11.540649 38,000 339 462 64
2019-10-15 11:12:54 GMT 40.555286 11.545570 38,000 339 462 64
2019-10-15 11:12:48 GMT 40.546207 11.550189 38,000 339 462 0
2019-10-15 11:12:43 GMT 40.536015 11.555432 38,000 339 462 0
2019-10-15 11:12:38 GMT 40.523804 11.561707 38,000 339 461 -64
2019-10-15 11:12:33 GMT 40.516479 11.565430 38,000 339 462 -64
2019-10-15 11:12:27 GMT 40.504169 11.571787 38,025 339 461 0
2019-10-15 11:12:23 GMT 40.495743 11.576111 38,025 339 461 64
2019-10-15 11:12:18 GMT 40.486343 11.580901 38,025 339 461 64
2019-10-15 11:12:13 GMT 40.473633 11.587393 38,000 339 461 64
2019-10-15 11:12:08 GMT 40.466400 11.591125 38,000 339 461 0
2019-10-15 11:12:02 GMT 40.453243 11.597817 38,000 339 461 -64
2019-10-15 11:11:57 GMT 40.443100 11.602966 38,000 339 461 -64
2019-10-15 11:11:51 GMT 40.432114 11.608582 38,000 339 460 0
2019-10-15 11:11:47 GMT 40.423233 11.613098 38,025 339 459 64
2019-10-15 11:11:40 GMT 40.409252 11.620164 38,000 339 459 64
2019-10-15 11:11:36 GMT 40.402409 11.623598 38,000 339 460 64
2019-10-15 11:11:29 GMT 40.389313 11.630249 38,000 339 460 64
2019-10-15 11:11:25 GMT 40.381302 11.634338 38,000 339 460 -64
2019-10-15 11:11:18 GMT 40.364090 11.643127 38,000 339 460 -64
2019-10-15 11:11:15 GMT 40.359741 11.645325 38,000 340 459 64
2019-10-15 11:11:09 GMT 40.347839 11.651367 38,000 339 459 -64
2019-10-15 11:11:05 GMT 40.341476 11.654541 38,000 340 459 -64
2019-10-15 11:10:56 GMT 40.322433 11.664062 38,000 340 458 0
2019-10-15 11:10:46 GMT 40.300598 11.674927 38,000 340 459 -64
2019-10-15 11:10:43 GMT 40.296642 11.676906 38,000 340 458 -64
2019-10-15 11:10:38 GMT 40.281418 11.684509 38,000 339 458 0
2019-10-15 11:10:31 GMT 40.273830 11.688330 38,000 339 458 0
2019-10-15 11:10:27 GMT 40.265823 11.692387 38,000 339 459 0
2019-10-15 11:10:24 GMT 40.260284 11.695196 38,000 339 459 0
2019-10-15 11:10:21 GMT 40.254410 11.698120 38,000 339 459 64
2019-10-15 11:10:14 GMT 40.234497 11.708191 38,000 339 459 128
2019-10-15 11:10:11 GMT 40.234497 11.708191 38,000 339 460 128
2019-10-15 11:10:04 GMT 40.218807 11.716107 37,975 339 460 64
2019-10-15 11:10:01 GMT 40.212845 11.719116 37,975 339 460 0
2019-10-15 11:09:54 GMT 40.199718 11.725720 38,000 339 460 -64
2019-10-15 11:09:50 GMT 40.191200 11.730028 38,000 339 459 0
2019-10-15 11:09:46 GMT 40.183193 11.734085 38,000 339 459 0
2019-10-15 11:09:42 GMT 40.174438 11.738525 38,000 339 458 0
2019-10-15 11:09:39 GMT 40.170578 11.740452 38,000 339 457 64
2019-10-15 11:09:32 GMT 40.157501 11.747070 38,000 339 454 64
2019-10-15 11:09:28 GMT 40.149582 11.751099 37,975 339 454 128
2019-10-15 11:09:23 GMT 40.138687 11.756592 37,975 339 454 192
2019-10-15 11:09:15 GMT 40.122437 11.764893 37,950 339 451 320
2019-10-15 11:09:12 GMT 40.117905 11.767151 37,925 339 451 320
2019-10-15 11:09:07 GMT 40.106735 11.772827 37,900 339 451 512
2019-10-15 11:09:02 GMT 40.098793 11.776844 37,850 339 450 832
2019-10-15 11:08:57 GMT 40.088459 11.782088 37,775 339 451 1088
2019-10-15 11:08:52 GMT 40.079727 11.786438 37,650 340 452 1408
2019-10-15 11:08:46 GMT 40.065975 11.793324 37,525 340 454 1536
2019-10-15 11:08:42 GMT 40.058014 11.797256 37,425 340 457 1536
2019-10-15 11:08:35 GMT 40.045807 11.803345 37,250 340 457 1472
2019-10-15 11:08:31 GMT 40.034821 11.808777 37,125 340 458 1216
2019-10-15 11:08:25 GMT 40.015732 11.818115 37,000 340 459 640
2019-10-15 11:08:20 GMT 40.015732 11.818115 36,975 340 459 576
2019-10-15 11:08:14 GMT 40.004292 11.823661 36,925 340 458 384
2019-10-15 11:08:10 GMT 39.995865 11.827759 36,875 340 457 256
2019-10-15 11:07:59 GMT 39.972931 11.838745 36,825 340 455 1024
2019-10-15 11:07:53 GMT 39.961121 11.844360 36,725 340 455 1024
2019-10-15 11:07:49 GMT 39.953934 11.847839 36,650 340 455 1216
2019-10-15 11:07:39 GMT 39.927841 11.860413 36,400 340 456 1216
2019-10-15 11:07:31 GMT 39.917358 11.865652 36,300 339 457 1088
2019-10-15 11:07:27 GMT 39.910583 11.869080 36,250 339 457 1024
2019-10-15 11:07:19 GMT 39.895176 11.877258 36,100 338 456 1024
2019-10-15 11:07:16 GMT 39.888519 11.880878 36,050 337 456 1024
2019-10-15 11:07:10 GMT 39.877392 11.887146 35,550 337 458 1152
2019-10-15 11:07:06 GMT 39.869980 11.891327 35,800 337 456 1280
2019-10-15 11:06:58 GMT 39.853371 11.900757 35,675 337 458 1280
2019-10-15 11:06:54 GMT 39.846436 11.904724 35,600 337 458 1216
2019-10-15 11:06:48 GMT 39.834751 11.911316 35,475 337 458 960
2019-10-15 11:06:43 GMT 39.825668 11.916464 35,450 337 458 896
2019-10-15 11:06:38 GMT 39.815338 11.922241 35,325 337 456 576
2019-10-15 11:06:33 GMT 39.798019 11.932007 35,300 337 455 640
2019-10-15 11:06:29 GMT 39.798019 11.932007 35,225 337 454 832
2019-10-15 11:06:26 GMT 39.791748 11.935571 35,125 337 454 960
2019-10-15 11:06:19 GMT 39.779026 11.942688 35,100 337 453 1152
2019-10-15 11:06:14 GMT 39.768318 11.948730 34,975 337 454 1216
2019-10-15 11:06:09 GMT 39.758560 11.954200 34,875 337 454 1344
2019-10-15 11:06:05 GMT 39.750687 11.958558 34,800 337 454 1536
2019-10-15 11:05:56 GMT 39.735081 11.967285 34,575 337 455 1792
2019-10-15 11:05:51 GMT 39.725075 11.972839 34,425 337 456 1792
2019-10-15 11:05:48 GMT 39.718964 11.976292 34,325 337 457 1600
2019-10-15 11:05:45 GMT 39.712738 11.979755 34,250 337 457 1536
2019-10-15 11:05:42 GMT 39.704964 11.984131 34,175 337 457 1408
2019-10-15 11:05:33 GMT 39.687180 11.994141 33,975 337 458 960
2019-10-15 11:05:23 GMT 39.669250 12.004235 33,825 337 456 960
2019-10-15 11:05:14 GMT 39.653137 12.013311 33,650 337 455 1280
2019-10-15 11:05:11 GMT 39.648170 12.016113 33,600 337 455 1216
2019-10-15 11:05:02 GMT 39.625217 12.028992 33,375 337 455 1152
2019-10-15 11:04:54 GMT 39.611618 12.036657 33,250 337 455 1216
2019-10-15 11:04:51 GMT 39.608139 12.038568 33,175 337 454 1152
2019-10-15 11:04:43 GMT 39.592541 12.047302 33,025 337 454 1216
2019-10-15 11:04:40 GMT 39.588364 12.049673 32,975 337 454 1216
2019-10-15 11:04:30 GMT 39.567398 12.061436 32,775 337 453 1088
2019-10-15 11:04:23 GMT 39.553856 12.068970 32,650 337 452 1216
2019-10-15 11:04:19 GMT 39.546478 12.073139 32,575 337 451 1152
2019-10-15 11:04:12 GMT 39.533791 12.080200 32,450 337 451 1088
2019-10-15 11:04:07 GMT 39.523968 12.085632 32,350 337 451 1344
2019-10-15 11:04:02 GMT 39.513794 12.091350 32,200 337 451 1856
2019-10-15 11:03:57 GMT 39.505188 12.096126 32,075 337 452 2048
2019-10-15 11:03:51 GMT 39.493244 12.102783 31,850 337 454 2048
2019-10-15 11:03:46 GMT 39.483376 12.108276 31,700 337 456 1536
2019-10-15 11:03:40 GMT 39.471863 12.114755 31,525 337 455 1600
2019-10-15 11:03:35 GMT 39.461494 12.120544 31,400 337 456 1536
2019-10-15 11:03:30 GMT 39.453159 12.125122 31,275 337 456 1536
2019-10-15 11:03:25 GMT 39.443344 12.130578 31,150 337 456 1600
2019-10-15 11:03:19 GMT 39.431671 12.137027 31,000 337 456 1344
2019-10-15 11:03:14 GMT 39.421368 12.142761 30,875 337 456 1280
2019-10-15 11:03:10 GMT 39.413498 12.147156 30,800 337 455 1344
2019-10-15 11:03:03 GMT 39.400276 12.154541 30,650 337 455 1024
2019-10-15 11:02:59 GMT 39.392456 12.158875 30,575 337 454 1088
2019-10-15 11:02:53 GMT 39.378616 12.166642 30,475 337 453 960
2019-10-15 11:02:48 GMT 39.372299 12.170165 30,400 337 452 896
2019-10-15 11:02:43 GMT 39.360893 12.176575 30,325 337 450 896
2019-10-15 11:02:38 GMT 39.351471 12.181808 30,250 337 449 1024
2019-10-15 11:02:32 GMT 39.340118 12.188137 30,150 337 447 1088
2019-10-15 11:02:27 GMT 39.332031 12.192688 30,075 337 446 1280
2019-10-15 11:02:21 GMT 39.320343 12.199183 29,925 337 446 1408
2019-10-15 11:02:17 GMT 39.312202 12.203674 29,800 337 446 1344
2019-10-15 11:02:10 GMT 39.298885 12.211121 29,650 337 445 1408
2019-10-15 11:02:07 GMT 39.293198 12.214289 29,600 337 444 1408
2019-10-15 11:01:58 GMT 39.276775 12.223389 29,400 337 443 1408
2019-10-15 11:01:55 GMT 39.269886 12.227173 29,300 337 443 1472
2019-10-15 11:01:49 GMT 39.256756 12.234436 29,150 337 443 1664
2019-10-15 11:01:45 GMT 39.251778 12.237183 28,850 337 437 1344
2019-10-15 11:01:35 GMT 39.232132 12.248024 28,825 337 442 1216
2019-10-15 11:01:28 GMT 39.219704 12.254944 28,675 337 439 1280
2019-10-15 11:01:24 GMT 39.211761 12.259309 28,575 337 439 1280
2019-10-15 11:01:17 GMT 39.199814 12.265937 28,450 337 437 1280
2019-10-15 11:01:13 GMT 39.192261 12.270116 28,375 337 436 1408
2019-10-15 11:01:06 GMT 39.179626 12.277102 28,200 337 436 1664
2019-10-15 11:01:03 GMT 39.172871 12.280823 28,100 337 435 1792
2019-10-15 11:01:00 GMT 39.166958 12.284119 28,000 337 435 1472
2019-10-15 11:00:53 GMT 39.154297 12.291077 27,800 337 435 1472
2019-10-15 11:00:47 GMT 39.144009 12.296814 27,675 337 434 1152
2019-10-15 11:00:43 GMT 39.136185 12.301105 27,600 337 432 1024
2019-10-15 11:00:40 GMT 39.131104 12.303911 27,550 337 432 1024
2019-10-15 11:00:31 GMT 39.114716 12.312987 27,400 337 429 1408
2019-10-15 11:00:25 GMT 39.101460 12.320312 27,200 337 427 1600
2019-10-15 11:00:21 GMT 39.096817 12.322839 27,150 337 427 1728
2019-10-15 11:00:10 GMT 39.076309 12.334124 26,850 337 426 1664
2019-10-15 11:00:04 GMT 39.065102 12.340271 26,675 337 424 1536
2019-10-15 11:00:00 GMT 39.058491 12.343872 26,575 337 424 1536
2019-10-15 10:59:49 GMT 39.038910 12.354723 26,300 337 421 1408
2019-10-15 10:59:39 GMT 39.019852 12.365173 25,925 337 418 1536
2019-10-15 10:59:26 GMT 38.996346 12.378174 25,725 337 416 1536
2019-10-15 10:59:18 GMT 38.980637 12.386727 25,525 337 414 1664
2019-10-15 10:59:07 GMT 38.963608 12.396101 25,250 337 412 1600
2019-10-15 10:59:04 GMT 38.958309 12.398926 25,175 337 410 1536
2019-10-15 10:58:56 GMT 38.944206 12.406677 24,950 338 409 1728
2019-10-15 10:58:53 GMT 38.938202 12.409894 24,875 338 408 1728
2019-10-15 10:58:45 GMT 38.925247 12.416939 24,650 338 408 1728
2019-10-15 10:58:35 GMT 38.907806 12.426313 24,375 338 406 1856
2019-10-15 10:58:28 GMT 38.896351 12.432495 24,175 337 405 1728
2019-10-15 10:58:24 GMT 38.889771 12.436165 24,050 336 404 1792
2019-10-15 10:58:18 GMT 38.878922 12.442614 23,625 330 398 2112
2019-10-15 10:58:13 GMT 38.870361 12.448047 23,725 333 401 1856
2019-10-15 10:58:07 GMT 38.858829 12.455872 23,500 330 398 2112
2019-10-15 10:58:04 GMT 38.855713 12.458078 23,450 331 399 2048
2019-10-15 10:57:57 GMT 38.845093 12.465900 23,150 330 398 1984
2019-10-15 10:57:53 GMT 38.838684 12.470736 23,075 330 398 1856
2019-10-15 10:57:43 GMT 38.821728 12.483459 22,775 330 395 1536
2019-10-15 10:57:33 GMT 38.805679 12.495575 22,550 330 390 1472
2019-10-15 10:57:27 GMT 38.796387 12.502561 22,400 330 388 1600
2019-10-15 10:57:22 GMT 38.789749 12.507517 22,275 330 387 1664
2019-10-15 10:57:16 GMT 38.780201 12.514709 21,650 330 381 1856
2019-10-15 10:57:12 GMT 38.773964 12.519409 22,000 330 384 1792
2019-10-15 10:57:02 GMT 38.758041 12.531372 21,675 330 380 1856
2019-10-15 10:56:54 GMT 38.747059 12.539673 21,475 330 377 1856
2019-10-15 10:56:51 GMT 38.741867 12.543580 21,375 330 377 1856
2019-10-15 10:56:43 GMT 38.729740 12.552673 21,125 330 375 1920
2019-10-15 10:56:40 GMT 38.726200 12.555298 21,050 330 374 1984
2019-10-15 10:56:30 GMT 38.709953 12.567444 20,675 330 372 2176
2019-10-15 10:56:19 GMT 38.694717 12.578749 20,300 330 370 2496
2019-10-15 10:56:09 GMT 38.679558 12.590088 19,875 330 370 2752
2019-10-15 10:55:59 GMT 38.664379 12.601379 19,425 330 370 2432
2019-10-15 10:55:48 GMT 38.648926 12.612854 19,025 330 369 2432
2019-10-15 10:55:38 GMT 38.633469 12.624329 18,600 330 367 2432
2019-10-15 10:55:27 GMT 38.617783 12.635986 18,200 330 365 2368
2019-10-15 10:55:17 GMT 38.603165 12.646851 17,775 330 364 2560
2019-10-15 10:55:06 GMT 38.587051 12.658877 17,325 330 363 2752
2019-10-15 10:54:56 GMT 38.572495 12.669744 16,825 330 363 3328
2019-10-15 10:54:46 GMT 38.557590 12.680908 16,300 330 365 2752
2019-10-15 10:54:35 GMT 38.542694 12.692017 15,900 330 362 2048
2019-10-15 10:54:25 GMT 38.527313 12.703479 15,525 330 357 2368
2019-10-15 10:54:15 GMT 38.512665 12.714294 15,100 330 355 2688
2019-10-15 10:54:04 GMT 38.497864 12.725281 14,650 330 352 2624
2019-10-15 10:53:54 GMT 38.483479 12.735962 14,225 330 349 2496
2019-10-15 10:53:43 GMT 38.468628 12.747007 13,800 330 345 2432
2019-10-15 10:53:33 GMT 38.454849 12.757217 13,400 330 340 2688
2019-10-15 10:53:23 GMT 38.440018 12.768143 12,925 330 337 3008
2019-10-15 10:53:12 GMT 38.426193 12.778353 12,375 330 337 3456
2019-10-15 10:53:01 GMT 38.411739 12.788982 11,775 330 337 3200
2019-10-15 10:52:51 GMT 38.397903 12.799248 11,300 330 335 2432
2019-10-15 10:52:41 GMT 38.383987 12.809591 10,925 330 328 1472
2019-10-15 10:52:30 GMT 38.370209 12.819818 10,725 330 315 1216
2019-10-15 10:52:20 GMT 38.357971 12.828747 10,500 331 303 1536
2019-10-15 10:52:09 GMT 38.344425 12.838659 10,125 331 292 2880
2019-10-15 10:52:00 GMT 38.333439 12.846719 9,700 330 288 2624
2019-10-15 10:51:49 GMT 38.320965 12.856034 9,225 330 284 2624
2019-10-15 10:51:39 GMT 38.309700 12.864393 8,800 330 278 2880
2019-10-15 10:51:29 GMT 38.298294 12.872762 8,300 331 274 3136
2019-10-15 10:51:18 GMT 38.286564 12.881350 7,750 331 273 3648
2019-10-15 10:51:08 GMT 38.275543 12.889359 7,150 331 274 3520
2019-10-15 10:50:57 GMT 38.264053 12.897774 6,550 331 274 3648
2019-10-15 10:50:47 GMT 38.252380 12.906072 5,950 331 276 3136
2019-10-15 10:50:36 GMT 38.240295 12.914838 5,500 331 278 1536
2019-10-15 10:50:26 GMT 38.228558 12.923266 5,225 330 275 1600
2019-10-15 10:50:16 GMT 38.217758 12.931744 4,975 322 272 1408
2019-10-15 10:50:05 GMT 38.208076 12.944999 4,775 303 261 1472
2019-10-15 10:49:54 GMT 38.202023 12.957180 4,500 303 244 1600
2019-10-15 10:49:44 GMT 38.196018 12.969002 4,225 304 230 1728
2019-10-15 10:49:34 GMT 38.189964 12.980645 3,950 305 226 1600
2019-10-15 10:49:24 GMT 38.183777 12.992169 3,675 305 226 1536
2019-10-15 10:49:13 GMT 38.177673 13.003137 3,400 306 228 2368
2019-10-15 10:49:03 GMT 38.171207 13.014739 2,950 305 224 3136
2019-10-15 10:48:52 GMT 38.165108 13.026083 2,450 302 220 2240
2019-10-15 10:48:41 GMT 38.159592 13.038083 2,075 297 210 1664
2019-10-15 10:48:32 GMT 38.155930 13.048602 1,850 288 194 1408
2019-10-15 10:48:21 GMT 38.153793 13.059520 1,600 277 177 1408
2019-10-15 10:48:11 GMT 38.153778 13.070166 1,350 259 160 1600
2019-10-15 10:48:00 GMT 38.156868 13.078686 975 226 145 2944
2019-10-15 10:47:50 GMT 38.162704 13.083665 500 205 146 2432
2019-10-15 10:47:39 GMT 38.169296 13.087344 100 204 145 2112
2019-10-15 10:47:28 GMT 38.175968 13.091145 0 202 120
2019-10-15 10:47:18 GMT 38.180202 13.093526 0 202 76
2019-10-15 10:47:07 GMT 38.182961 13.095060 0 202 22
2019-10-15 10:46:58 GMT 38.183315 13.095236 0 199 0
2019-10-15 10:46:47 GMT 38.183323 13.095240 0 199 0
2019-10-15 10:46:37 GMT 38.183414 13.095285 0 205 5
2019-10-15 10:46:26 GMT 38.183624 13.095464 0 281 6
2019-10-15 10:46:16 GMT 38.183540 13.095942 0 286 12
2019-10-15 10:46:06 GMT 38.183338 13.096550 0 292 9
2019-10-15 10:45:52 GMT 38.183216 13.096927 0 295 1
2019-10-15 10:45:45 GMT 38.183205 13.096942 0 295 0
2019-10-15 10:45:35 GMT 38.183212 13.096945 0 295 0
2019-10-15 10:45:24 GMT 38.183205 13.096942 0 295 0
2019-10-15 10:45:13 GMT 38.183167 13.097047 0 298 6
2019-10-15 10:44:57 GMT 38.182732 13.097646 0 337 10
2019-10-15 10:44:52 GMT 38.182446 13.097807 0 337 13
2019-10-15 10:44:40 GMT 38.181725 13.098187 0 337 18
2019-10-15 10:44:31 GMT 38.181107 13.098523 0 337 14
2019-10-15 10:44:21 GMT 38.180649 13.098859 0 295 11
2019-10-15 10:44:11 GMT 38.180706 13.099429 0 247 14
2019-10-15 10:43:50 GMT 38.181458 13.101644 0 247 25
2019-10-15 10:43:38 GMT 38.181953 13.103096 0 247 23
2019-10-15 10:43:29 GMT 38.182308 13.104162 0 247 21
2019-10-15 10:43:16 GMT 38.182796 13.105615 0 247 18
2019-10-15 10:43:05 GMT 38.183109 13.106587 0 247 17
2019-10-15 10:42:56 GMT 38.183380 13.107376 0 247 16
2019-10-15 10:41:32 GMT 38.185066 13.107466 0 90 7
2019-10-15 10:41:22 GMT 38.185055 13.107227 0 67 4
2019-10-15 10:41:09 GMT 38.185020 13.107107 0 67 0
2019-10-15 10:40:44 GMT 38.185020 13.107092 0 67 0
2019-10-15 10:40:24 GMT 38.185020 13.107084 0 67 0
2019-10-15 10:40:19 GMT 38.185020 13.107092 0 67 0
2019-10-15 10:40:04 GMT 38.185020 13.107099 0 67 0
2019-10-15 10:39:54 GMT 38.185009 13.107099 0 67 0
2019-10-15 10:39:18 GMT 38.185020 13.107092 0 67 0
2019-10-15 10:39:13 GMT 38.185020 13.107099 0 67 0
2019-10-15 10:39:03 GMT 38.185020 13.107084 0 67 0
2019-10-15 10:38:33 GMT 38.185020 13.107099 0 67 0
2019-10-15 10:38:02 GMT 38.185020 13.107084 0 67 0
2019-10-15 10:37:51 GMT 38.185020 13.107092 0 67 0
2019-10-15 10:37:40 GMT 38.185032 13.107113 0 67 2
2019-10-15 10:37:30 GMT 38.185135 13.107157 0 39 4
2019-10-15 10:37:19 GMT 38.185226 13.107332 0 50 4
2019-10-15 10:37:09 GMT 38.185341 13.107478 0 47 4
2019-10-15 10:36:57 GMT 38.185501 13.107654 0 39 4
2019-10-15 10:36:47 GMT 38.185616 13.107719 0 25 4
2019-10-15 10:36:37 GMT 38.185764 13.107756 0 14 4

Making use of Plane Finder data

You are free to use the raw flight data, aircraft information and images provided in this report for your own purposes provided the data is correctly attributed to Plane Finder. We ask that you please credit Plane Finder and link to planefinder.net in close proximity to the content.

Optionally one of the following logos (no smaller then 150x24px) can be used and must link to planefinder.net

Embedding the Plane Finder map

You are welcome to embed the Plane Finder playback map on your website to offer visitors a more interactive experience. We suggest using the following HTML code:

<iframe src="//planefinder.net/data/report/U22454-G-EZBZ-7700-squawk-2019-10-15/map" width="800" height="600" seamless="seamless"></iframe>

Where our data comes from

Plane Finder has a global network of data feeds and antenna radars that receive data broadcast directly from aircraft. The primary technologies used are ADS-B and MLAT. We also show feeds from the FAA and a FLARM glider feed.

Click here to find out more about the Plane Finder network.

How we collect our data